<?xml version="1.0" encoding="UTF-8" standalone="no" ?>
<gpx xmlns="http://www.topografix.com/GPX/1/1" xmlns:xsi="http://www.w3.org/2001/XMLSchema-instance" xsi:schemaLocation="http://www.topografix.com/GPX/1/1 http://www.topografix.com/GPX/1/1/gpx.xsd" version="1.1" creator="VisuGPX - https://www.visugpx.com">
  <metadata>
    <name>La Boissaude - Le Mont d'Or</name>
    <desc><![CDATA[Randonnée pédestre effectuée le 21 mai 2019]]></desc>
  </metadata>
  <trk>
    <name><![CDATA[21 mai 2019 à 14:13:29]]></name>
    <trkseg>
      <trkpt lat="46.72832" lon="6.32446">
        <ele>1227</ele>
        <time>2019-05-21T12:13:30Z</time>
      </trkpt>
      <trkpt lat="46.72836" lon="6.32436">
        <ele>1226</ele>
        <time>2019-05-21T12:13:32Z</time>
      </trkpt>
      <trkpt lat="46.72841" lon="6.32451">
        <ele>1224</ele>
        <time>2019-05-21T12:13:49Z</time>
      </trkpt>
      <trkpt lat="46.72842" lon="6.32457">
        <ele>1223</ele>
        <time>2019-05-21T12:13:54Z</time>
      </trkpt>
      <trkpt lat="46.7284" lon="6.32466">
        <ele>1222</ele>
        <time>2019-05-21T12:14:01Z</time>
      </trkpt>
      <trkpt lat="46.72841" lon="6.32473">
        <ele>1223</ele>
        <time>2019-05-21T12:14:06Z</time>
      </trkpt>
      <trkpt lat="46.72841" lon="6.32486">
        <ele>1223</ele>
        <time>2019-05-21T12:14:17Z</time>
      </trkpt>
      <trkpt lat="46.72841" lon="6.32499">
        <ele>1221</ele>
        <time>2019-05-21T12:14:28Z</time>
      </trkpt>
      <trkpt lat="46.7284" lon="6.32506">
        <ele>1221</ele>
        <time>2019-05-21T12:14:33Z</time>
      </trkpt>
      <trkpt lat="46.72835" lon="6.32536">
        <ele>1219</ele>
        <time>2019-05-21T12:14:54Z</time>
      </trkpt>
      <trkpt lat="46.72835" lon="6.32547">
        <ele>1220</ele>
        <time>2019-05-21T12:15:04Z</time>
      </trkpt>
      <trkpt lat="46.72834" lon="6.32554">
        <ele>1220</ele>
        <time>2019-05-21T12:15:08Z</time>
      </trkpt>
      <trkpt lat="46.72835" lon="6.3256">
        <ele>1221</ele>
        <time>2019-05-21T12:15:13Z</time>
      </trkpt>
      <trkpt lat="46.72836" lon="6.32568">
        <ele>1221</ele>
        <time>2019-05-21T12:15:17Z</time>
      </trkpt>
      <trkpt lat="46.72837" lon="6.32579">
        <ele>1220</ele>
        <time>2019-05-21T12:15:26Z</time>
      </trkpt>
      <trkpt lat="46.72838" lon="6.32586">
        <ele>1220</ele>
        <time>2019-05-21T12:15:30Z</time>
      </trkpt>
      <trkpt lat="46.7284" lon="6.32593">
        <ele>1219</ele>
        <time>2019-05-21T12:15:35Z</time>
      </trkpt>
      <trkpt lat="46.72845" lon="6.32606">
        <ele>1220</ele>
        <time>2019-05-21T12:15:44Z</time>
      </trkpt>
      <trkpt lat="46.72848" lon="6.32613">
        <ele>1220</ele>
        <time>2019-05-21T12:15:48Z</time>
      </trkpt>
      <trkpt lat="46.72848" lon="6.32621">
        <ele>1220</ele>
        <time>2019-05-21T12:15:53Z</time>
      </trkpt>
      <trkpt lat="46.72849" lon="6.32628">
        <ele>1221</ele>
        <time>2019-05-21T12:15:58Z</time>
      </trkpt>
      <trkpt lat="46.72849" lon="6.32635">
        <ele>1220</ele>
        <time>2019-05-21T12:16:03Z</time>
      </trkpt>
      <trkpt lat="46.7285" lon="6.32642">
        <ele>1221</ele>
        <time>2019-05-21T12:16:08Z</time>
      </trkpt>
      <trkpt lat="46.72852" lon="6.32649">
        <ele>1221</ele>
        <time>2019-05-21T12:16:13Z</time>
      </trkpt>
      <trkpt lat="46.72852" lon="6.32664">
        <ele>1222</ele>
        <time>2019-05-21T12:16:26Z</time>
      </trkpt>
      <trkpt lat="46.72859" lon="6.32693">
        <ele>1224</ele>
        <time>2019-05-21T12:16:49Z</time>
      </trkpt>
      <trkpt lat="46.72858" lon="6.3272">
        <ele>1227</ele>
        <time>2019-05-21T12:17:10Z</time>
      </trkpt>
      <trkpt lat="46.72859" lon="6.32747">
        <ele>1230</ele>
        <time>2019-05-21T12:17:29Z</time>
      </trkpt>
      <trkpt lat="46.72859" lon="6.32769">
        <ele>1232</ele>
        <time>2019-05-21T12:17:46Z</time>
      </trkpt>
      <trkpt lat="46.72861" lon="6.32783">
        <ele>1234</ele>
        <time>2019-05-21T12:17:58Z</time>
      </trkpt>
      <trkpt lat="46.72864" lon="6.32793">
        <ele>1233</ele>
        <time>2019-05-21T12:18:07Z</time>
      </trkpt>
      <trkpt lat="46.72864" lon="6.3281">
        <ele>1235</ele>
        <time>2019-05-21T12:18:19Z</time>
      </trkpt>
      <trkpt lat="46.72865" lon="6.32816">
        <ele>1235</ele>
        <time>2019-05-21T12:18:24Z</time>
      </trkpt>
      <trkpt lat="46.72866" lon="6.32833">
        <ele>1237</ele>
        <time>2019-05-21T12:18:35Z</time>
      </trkpt>
      <trkpt lat="46.72866" lon="6.3284">
        <ele>1236</ele>
        <time>2019-05-21T12:18:40Z</time>
      </trkpt>
      <trkpt lat="46.72867" lon="6.32848">
        <ele>1237</ele>
        <time>2019-05-21T12:18:47Z</time>
      </trkpt>
      <trkpt lat="46.72869" lon="6.32854">
        <ele>1238</ele>
        <time>2019-05-21T12:18:52Z</time>
      </trkpt>
      <trkpt lat="46.7287" lon="6.32862">
        <ele>1238</ele>
        <time>2019-05-21T12:18:57Z</time>
      </trkpt>
      <trkpt lat="46.72869" lon="6.32883">
        <ele>1239</ele>
        <time>2019-05-21T12:19:11Z</time>
      </trkpt>
      <trkpt lat="46.72871" lon="6.32897">
        <ele>1239</ele>
        <time>2019-05-21T12:19:21Z</time>
      </trkpt>
      <trkpt lat="46.72871" lon="6.32929">
        <ele>1240</ele>
        <time>2019-05-21T12:19:44Z</time>
      </trkpt>
      <trkpt lat="46.7287" lon="6.32935">
        <ele>1240</ele>
        <time>2019-05-21T12:19:49Z</time>
      </trkpt>
      <trkpt lat="46.72871" lon="6.32953">
        <ele>1242</ele>
        <time>2019-05-21T12:20:04Z</time>
      </trkpt>
      <trkpt lat="46.72871" lon="6.32981">
        <ele>1244</ele>
        <time>2019-05-21T12:20:25Z</time>
      </trkpt>
      <trkpt lat="46.72866" lon="6.33013">
        <ele>1247</ele>
        <time>2019-05-21T12:20:52Z</time>
      </trkpt>
      <trkpt lat="46.72867" lon="6.33026">
        <ele>1248</ele>
        <time>2019-05-21T12:21:01Z</time>
      </trkpt>
      <trkpt lat="46.72863" lon="6.33038">
        <ele>1249</ele>
        <time>2019-05-21T12:21:10Z</time>
      </trkpt>
      <trkpt lat="46.72868" lon="6.3305">
        <ele>1250</ele>
        <time>2019-05-21T12:21:19Z</time>
      </trkpt>
      <trkpt lat="46.72866" lon="6.33064">
        <ele>1251</ele>
        <time>2019-05-21T12:21:32Z</time>
      </trkpt>
      <trkpt lat="46.72864" lon="6.33085">
        <ele>1253</ele>
        <time>2019-05-21T12:21:46Z</time>
      </trkpt>
      <trkpt lat="46.7287" lon="6.33097">
        <ele>1255</ele>
        <time>2019-05-21T12:22:03Z</time>
      </trkpt>
      <trkpt lat="46.72878" lon="6.33106">
        <ele>1256</ele>
        <time>2019-05-21T12:22:11Z</time>
      </trkpt>
      <trkpt lat="46.7288" lon="6.33138">
        <ele>1260</ele>
        <time>2019-05-21T12:22:52Z</time>
      </trkpt>
      <trkpt lat="46.72879" lon="6.33154">
        <ele>1262</ele>
        <time>2019-05-21T12:23:06Z</time>
      </trkpt>
      <trkpt lat="46.72879" lon="6.33172">
        <ele>1265</ele>
        <time>2019-05-21T12:23:24Z</time>
      </trkpt>
      <trkpt lat="46.72875" lon="6.33188">
        <ele>1266</ele>
        <time>2019-05-21T12:23:37Z</time>
      </trkpt>
      <trkpt lat="46.72881" lon="6.33199">
        <ele>1267</ele>
        <time>2019-05-21T12:23:49Z</time>
      </trkpt>
      <trkpt lat="46.72889" lon="6.33212">
        <ele>1269</ele>
        <time>2019-05-21T12:24:07Z</time>
      </trkpt>
      <trkpt lat="46.72893" lon="6.33243">
        <ele>1272</ele>
        <time>2019-05-21T12:24:49Z</time>
      </trkpt>
      <trkpt lat="46.72893" lon="6.33262">
        <ele>1272</ele>
        <time>2019-05-21T12:25:07Z</time>
      </trkpt>
      <trkpt lat="46.72899" lon="6.33279">
        <ele>1273</ele>
        <time>2019-05-21T12:25:24Z</time>
      </trkpt>
      <trkpt lat="46.72901" lon="6.33291">
        <ele>1275</ele>
        <time>2019-05-21T12:25:42Z</time>
      </trkpt>
      <trkpt lat="46.72898" lon="6.33296">
        <ele>1276</ele>
        <time>2019-05-21T12:25:48Z</time>
      </trkpt>
      <trkpt lat="46.72893" lon="6.33297">
        <ele>1277</ele>
        <time>2019-05-21T12:25:54Z</time>
      </trkpt>
      <trkpt lat="46.72888" lon="6.333">
        <ele>1279</ele>
        <time>2019-05-21T12:26:04Z</time>
      </trkpt>
      <trkpt lat="46.72895" lon="6.3331">
        <ele>1281</ele>
        <time>2019-05-21T12:26:58Z</time>
      </trkpt>
      <trkpt lat="46.72899" lon="6.33312">
        <ele>1282</ele>
        <time>2019-05-21T12:27:03Z</time>
      </trkpt>
      <trkpt lat="46.72904" lon="6.33312">
        <ele>1282</ele>
        <time>2019-05-21T12:27:11Z</time>
      </trkpt>
      <trkpt lat="46.72909" lon="6.33315">
        <ele>1280</ele>
        <time>2019-05-21T12:27:35Z</time>
      </trkpt>
      <trkpt lat="46.72911" lon="6.33321">
        <ele>1281</ele>
        <time>2019-05-21T12:28:11Z</time>
      </trkpt>
      <trkpt lat="46.72906" lon="6.33329">
        <ele>1281</ele>
        <time>2019-05-21T12:28:23Z</time>
      </trkpt>
      <trkpt lat="46.72903" lon="6.33334">
        <ele>1283</ele>
        <time>2019-05-21T12:28:59Z</time>
      </trkpt>
      <trkpt lat="46.72899" lon="6.33347">
        <ele>1283</ele>
        <time>2019-05-21T12:31:45Z</time>
      </trkpt>
      <trkpt lat="46.72897" lon="6.33367">
        <ele>1279</ele>
        <time>2019-05-21T12:32:00Z</time>
      </trkpt>
      <trkpt lat="46.72898" lon="6.33373">
        <ele>1279</ele>
        <time>2019-05-21T12:32:04Z</time>
      </trkpt>
      <trkpt lat="46.72899" lon="6.3338">
        <ele>1277</ele>
        <time>2019-05-21T12:32:08Z</time>
      </trkpt>
      <trkpt lat="46.72901" lon="6.33395">
        <ele>1275</ele>
        <time>2019-05-21T12:32:18Z</time>
      </trkpt>
      <trkpt lat="46.72903" lon="6.33414">
        <ele>1274</ele>
        <time>2019-05-21T12:32:32Z</time>
      </trkpt>
      <trkpt lat="46.72903" lon="6.33437">
        <ele>1272</ele>
        <time>2019-05-21T12:32:47Z</time>
      </trkpt>
      <trkpt lat="46.72904" lon="6.33451">
        <ele>1273</ele>
        <time>2019-05-21T12:32:56Z</time>
      </trkpt>
      <trkpt lat="46.72905" lon="6.33466">
        <ele>1273</ele>
        <time>2019-05-21T12:33:05Z</time>
      </trkpt>
      <trkpt lat="46.72906" lon="6.33472">
        <ele>1274</ele>
        <time>2019-05-21T12:33:09Z</time>
      </trkpt>
      <trkpt lat="46.72906" lon="6.33479">
        <ele>1274</ele>
        <time>2019-05-21T12:33:13Z</time>
      </trkpt>
      <trkpt lat="46.72907" lon="6.33487">
        <ele>1274</ele>
        <time>2019-05-21T12:33:18Z</time>
      </trkpt>
      <trkpt lat="46.72913" lon="6.33523">
        <ele>1272</ele>
        <time>2019-05-21T12:33:42Z</time>
      </trkpt>
      <trkpt lat="46.72916" lon="6.33534">
        <ele>1272</ele>
        <time>2019-05-21T12:33:50Z</time>
      </trkpt>
      <trkpt lat="46.72918" lon="6.33541">
        <ele>1271</ele>
        <time>2019-05-21T12:33:55Z</time>
      </trkpt>
      <trkpt lat="46.72921" lon="6.33563">
        <ele>1271</ele>
        <time>2019-05-21T12:34:09Z</time>
      </trkpt>
      <trkpt lat="46.72923" lon="6.33571">
        <ele>1271</ele>
        <time>2019-05-21T12:34:14Z</time>
      </trkpt>
      <trkpt lat="46.72925" lon="6.33577">
        <ele>1271</ele>
        <time>2019-05-21T12:34:19Z</time>
      </trkpt>
      <trkpt lat="46.72931" lon="6.33597">
        <ele>1272</ele>
        <time>2019-05-21T12:34:34Z</time>
      </trkpt>
      <trkpt lat="46.72936" lon="6.33609">
        <ele>1273</ele>
        <time>2019-05-21T12:34:44Z</time>
      </trkpt>
      <trkpt lat="46.72945" lon="6.33637">
        <ele>1273</ele>
        <time>2019-05-21T12:35:05Z</time>
      </trkpt>
      <trkpt lat="46.72949" lon="6.3365">
        <ele>1273</ele>
        <time>2019-05-21T12:35:14Z</time>
      </trkpt>
      <trkpt lat="46.72951" lon="6.33656">
        <ele>1273</ele>
        <time>2019-05-21T12:35:18Z</time>
      </trkpt>
      <trkpt lat="46.72953" lon="6.33662">
        <ele>1273</ele>
        <time>2019-05-21T12:35:23Z</time>
      </trkpt>
      <trkpt lat="46.72956" lon="6.33676">
        <ele>1274</ele>
        <time>2019-05-21T12:35:33Z</time>
      </trkpt>
      <trkpt lat="46.72959" lon="6.33683">
        <ele>1274</ele>
        <time>2019-05-21T12:35:38Z</time>
      </trkpt>
      <trkpt lat="46.7296" lon="6.3369">
        <ele>1274</ele>
        <time>2019-05-21T12:35:43Z</time>
      </trkpt>
      <trkpt lat="46.72963" lon="6.3371">
        <ele>1273</ele>
        <time>2019-05-21T12:35:56Z</time>
      </trkpt>
      <trkpt lat="46.72966" lon="6.33717">
        <ele>1273</ele>
        <time>2019-05-21T12:36:01Z</time>
      </trkpt>
      <trkpt lat="46.72968" lon="6.33723">
        <ele>1273</ele>
        <time>2019-05-21T12:36:06Z</time>
      </trkpt>
      <trkpt lat="46.7297" lon="6.33733">
        <ele>1273</ele>
        <time>2019-05-21T12:36:13Z</time>
      </trkpt>
      <trkpt lat="46.72972" lon="6.33739">
        <ele>1273</ele>
        <time>2019-05-21T12:36:18Z</time>
      </trkpt>
      <trkpt lat="46.72975" lon="6.33745">
        <ele>1273</ele>
        <time>2019-05-21T12:36:23Z</time>
      </trkpt>
      <trkpt lat="46.72977" lon="6.33751">
        <ele>1273</ele>
        <time>2019-05-21T12:36:28Z</time>
      </trkpt>
      <trkpt lat="46.72984" lon="6.33763">
        <ele>1274</ele>
        <time>2019-05-21T12:36:38Z</time>
      </trkpt>
      <trkpt lat="46.72986" lon="6.33778">
        <ele>1275</ele>
        <time>2019-05-21T12:36:48Z</time>
      </trkpt>
      <trkpt lat="46.72989" lon="6.33789">
        <ele>1275</ele>
        <time>2019-05-21T12:36:58Z</time>
      </trkpt>
      <trkpt lat="46.72992" lon="6.33803">
        <ele>1277</ele>
        <time>2019-05-21T12:37:10Z</time>
      </trkpt>
      <trkpt lat="46.72998" lon="6.33824">
        <ele>1278</ele>
        <time>2019-05-21T12:37:30Z</time>
      </trkpt>
      <trkpt lat="46.72999" lon="6.3383">
        <ele>1279</ele>
        <time>2019-05-21T12:37:36Z</time>
      </trkpt>
      <trkpt lat="46.73003" lon="6.33842">
        <ele>1280</ele>
        <time>2019-05-21T12:37:48Z</time>
      </trkpt>
      <trkpt lat="46.73007" lon="6.33872">
        <ele>1284</ele>
        <time>2019-05-21T12:38:18Z</time>
      </trkpt>
      <trkpt lat="46.73008" lon="6.33884">
        <ele>1286</ele>
        <time>2019-05-21T12:38:30Z</time>
      </trkpt>
      <trkpt lat="46.73012" lon="6.339">
        <ele>1287</ele>
        <time>2019-05-21T12:38:48Z</time>
      </trkpt>
      <trkpt lat="46.73012" lon="6.33912">
        <ele>1289</ele>
        <time>2019-05-21T12:39:00Z</time>
      </trkpt>
      <trkpt lat="46.73011" lon="6.33922">
        <ele>1289</ele>
        <time>2019-05-21T12:39:12Z</time>
      </trkpt>
      <trkpt lat="46.73024" lon="6.33932">
        <ele>1291</ele>
        <time>2019-05-21T12:39:32Z</time>
      </trkpt>
      <trkpt lat="46.73029" lon="6.33933">
        <ele>1292</ele>
        <time>2019-05-21T12:39:38Z</time>
      </trkpt>
      <trkpt lat="46.73032" lon="6.33948">
        <ele>1295</ele>
        <time>2019-05-21T12:40:02Z</time>
      </trkpt>
      <trkpt lat="46.73033" lon="6.33964">
        <ele>1297</ele>
        <time>2019-05-21T12:40:20Z</time>
      </trkpt>
      <trkpt lat="46.7304" lon="6.33972">
        <ele>1302</ele>
        <time>2019-05-21T12:40:39Z</time>
      </trkpt>
      <trkpt lat="46.73041" lon="6.3398">
        <ele>1307</ele>
        <time>2019-05-21T12:41:39Z</time>
      </trkpt>
      <trkpt lat="46.73045" lon="6.33984">
        <ele>1306</ele>
        <time>2019-05-21T12:42:15Z</time>
      </trkpt>
      <trkpt lat="46.73047" lon="6.33993">
        <ele>1308</ele>
        <time>2019-05-21T12:42:39Z</time>
      </trkpt>
      <trkpt lat="46.73048" lon="6.34">
        <ele>1306</ele>
        <time>2019-05-21T12:42:45Z</time>
      </trkpt>
      <trkpt lat="46.73052" lon="6.3401">
        <ele>1306</ele>
        <time>2019-05-21T12:42:57Z</time>
      </trkpt>
      <trkpt lat="46.73053" lon="6.34023">
        <ele>1309</ele>
        <time>2019-05-21T12:43:09Z</time>
      </trkpt>
      <trkpt lat="46.73055" lon="6.34033">
        <ele>1308</ele>
        <time>2019-05-21T12:43:21Z</time>
      </trkpt>
      <trkpt lat="46.73053" lon="6.3404">
        <ele>1308</ele>
        <time>2019-05-21T12:43:33Z</time>
      </trkpt>
      <trkpt lat="46.73062" lon="6.34044">
        <ele>1305</ele>
        <time>2019-05-21T12:44:02Z</time>
      </trkpt>
      <trkpt lat="46.7307" lon="6.34044">
        <ele>1307</ele>
        <time>2019-05-21T12:44:17Z</time>
      </trkpt>
      <trkpt lat="46.73072" lon="6.34057">
        <ele>1309</ele>
        <time>2019-05-21T12:44:29Z</time>
      </trkpt>
      <trkpt lat="46.73072" lon="6.34067">
        <ele>1309</ele>
        <time>2019-05-21T12:44:41Z</time>
      </trkpt>
      <trkpt lat="46.73074" lon="6.34073">
        <ele>1309</ele>
        <time>2019-05-21T12:44:47Z</time>
      </trkpt>
      <trkpt lat="46.7308" lon="6.34109">
        <ele>1311</ele>
        <time>2019-05-21T12:45:17Z</time>
      </trkpt>
      <trkpt lat="46.73079" lon="6.34116">
        <ele>1311</ele>
        <time>2019-05-21T12:45:22Z</time>
      </trkpt>
      <trkpt lat="46.73078" lon="6.34122">
        <ele>1312</ele>
        <time>2019-05-21T12:45:27Z</time>
      </trkpt>
      <trkpt lat="46.73079" lon="6.34131">
        <ele>1311</ele>
        <time>2019-05-21T12:45:34Z</time>
      </trkpt>
      <trkpt lat="46.7308" lon="6.34142">
        <ele>1311</ele>
        <time>2019-05-21T12:45:45Z</time>
      </trkpt>
      <trkpt lat="46.73096" lon="6.34183">
        <ele>1313</ele>
        <time>2019-05-21T12:46:25Z</time>
      </trkpt>
      <trkpt lat="46.73101" lon="6.34196">
        <ele>1313</ele>
        <time>2019-05-21T12:46:34Z</time>
      </trkpt>
      <trkpt lat="46.73102" lon="6.34211">
        <ele>1311</ele>
        <time>2019-05-21T12:46:49Z</time>
      </trkpt>
      <trkpt lat="46.73113" lon="6.34227">
        <ele>1312</ele>
        <time>2019-05-21T12:47:11Z</time>
      </trkpt>
      <trkpt lat="46.7312" lon="6.34237">
        <ele>1312</ele>
        <time>2019-05-21T12:47:20Z</time>
      </trkpt>
      <trkpt lat="46.73123" lon="6.34249">
        <ele>1313</ele>
        <time>2019-05-21T12:47:28Z</time>
      </trkpt>
      <trkpt lat="46.73128" lon="6.34261">
        <ele>1312</ele>
        <time>2019-05-21T12:47:35Z</time>
      </trkpt>
      <trkpt lat="46.73132" lon="6.34273">
        <ele>1313</ele>
        <time>2019-05-21T12:47:45Z</time>
      </trkpt>
      <trkpt lat="46.73134" lon="6.34288">
        <ele>1314</ele>
        <time>2019-05-21T12:47:57Z</time>
      </trkpt>
      <trkpt lat="46.73138" lon="6.34301">
        <ele>1314</ele>
        <time>2019-05-21T12:48:11Z</time>
      </trkpt>
      <trkpt lat="46.73138" lon="6.34317">
        <ele>1314</ele>
        <time>2019-05-21T12:48:26Z</time>
      </trkpt>
      <trkpt lat="46.73149" lon="6.34323">
        <ele>1315</ele>
        <time>2019-05-21T12:48:40Z</time>
      </trkpt>
      <trkpt lat="46.73158" lon="6.34324">
        <ele>1315</ele>
        <time>2019-05-21T12:48:50Z</time>
      </trkpt>
      <trkpt lat="46.73164" lon="6.34336">
        <ele>1316</ele>
        <time>2019-05-21T12:49:00Z</time>
      </trkpt>
      <trkpt lat="46.73167" lon="6.34349">
        <ele>1316</ele>
        <time>2019-05-21T12:49:10Z</time>
      </trkpt>
      <trkpt lat="46.73172" lon="6.34365">
        <ele>1316</ele>
        <time>2019-05-21T12:49:26Z</time>
      </trkpt>
      <trkpt lat="46.7318" lon="6.34373">
        <ele>1316</ele>
        <time>2019-05-21T12:49:35Z</time>
      </trkpt>
      <trkpt lat="46.73184" lon="6.34389">
        <ele>1316</ele>
        <time>2019-05-21T12:49:47Z</time>
      </trkpt>
      <trkpt lat="46.73185" lon="6.344">
        <ele>1315</ele>
        <time>2019-05-21T12:49:57Z</time>
      </trkpt>
      <trkpt lat="46.73185" lon="6.34408">
        <ele>1316</ele>
        <time>2019-05-21T12:50:02Z</time>
      </trkpt>
      <trkpt lat="46.73186" lon="6.34417">
        <ele>1317</ele>
        <time>2019-05-21T12:50:11Z</time>
      </trkpt>
      <trkpt lat="46.73189" lon="6.34421">
        <ele>1318</ele>
        <time>2019-05-21T12:50:16Z</time>
      </trkpt>
      <trkpt lat="46.73193" lon="6.34427">
        <ele>1317</ele>
        <time>2019-05-21T12:50:24Z</time>
      </trkpt>
      <trkpt lat="46.73195" lon="6.34434">
        <ele>1318</ele>
        <time>2019-05-21T12:50:30Z</time>
      </trkpt>
      <trkpt lat="46.73195" lon="6.34441">
        <ele>1318</ele>
        <time>2019-05-21T12:50:35Z</time>
      </trkpt>
      <trkpt lat="46.73194" lon="6.34448">
        <ele>1318</ele>
        <time>2019-05-21T12:50:40Z</time>
      </trkpt>
      <trkpt lat="46.73198" lon="6.34465">
        <ele>1320</ele>
        <time>2019-05-21T12:51:00Z</time>
      </trkpt>
      <trkpt lat="46.73203" lon="6.34471">
        <ele>1321</ele>
        <time>2019-05-21T12:51:12Z</time>
      </trkpt>
      <trkpt lat="46.73204" lon="6.34481">
        <ele>1322</ele>
        <time>2019-05-21T12:51:24Z</time>
      </trkpt>
      <trkpt lat="46.73205" lon="6.34488">
        <ele>1322</ele>
        <time>2019-05-21T12:51:30Z</time>
      </trkpt>
      <trkpt lat="46.73211" lon="6.34499">
        <ele>1322</ele>
        <time>2019-05-21T12:51:40Z</time>
      </trkpt>
      <trkpt lat="46.7322" lon="6.34517">
        <ele>1322</ele>
        <time>2019-05-21T12:51:55Z</time>
      </trkpt>
      <trkpt lat="46.73223" lon="6.34531">
        <ele>1322</ele>
        <time>2019-05-21T12:52:09Z</time>
      </trkpt>
      <trkpt lat="46.73225" lon="6.34549">
        <ele>1324</ele>
        <time>2019-05-21T12:52:26Z</time>
      </trkpt>
      <trkpt lat="46.73227" lon="6.34555">
        <ele>1324</ele>
        <time>2019-05-21T12:52:32Z</time>
      </trkpt>
      <trkpt lat="46.73229" lon="6.34562">
        <ele>1323</ele>
        <time>2019-05-21T12:52:40Z</time>
      </trkpt>
      <trkpt lat="46.73232" lon="6.34569">
        <ele>1324</ele>
        <time>2019-05-21T12:52:52Z</time>
      </trkpt>
      <trkpt lat="46.73237" lon="6.34577">
        <ele>1322</ele>
        <time>2019-05-21T12:53:04Z</time>
      </trkpt>
      <trkpt lat="46.73242" lon="6.34584">
        <ele>1323</ele>
        <time>2019-05-21T12:53:16Z</time>
      </trkpt>
      <trkpt lat="46.73246" lon="6.34593">
        <ele>1327</ele>
        <time>2019-05-21T12:53:28Z</time>
      </trkpt>
      <trkpt lat="46.7325" lon="6.34601">
        <ele>1327</ele>
        <time>2019-05-21T12:53:40Z</time>
      </trkpt>
      <trkpt lat="46.73254" lon="6.34607">
        <ele>1330</ele>
        <time>2019-05-21T12:53:52Z</time>
      </trkpt>
      <trkpt lat="46.73257" lon="6.34617">
        <ele>1330</ele>
        <time>2019-05-21T12:54:04Z</time>
      </trkpt>
      <trkpt lat="46.73266" lon="6.34649">
        <ele>1336</ele>
        <time>2019-05-21T12:54:40Z</time>
      </trkpt>
      <trkpt lat="46.7328" lon="6.34677">
        <ele>1342</ele>
        <time>2019-05-21T12:55:16Z</time>
      </trkpt>
      <trkpt lat="46.7329" lon="6.34698">
        <ele>1346</ele>
        <time>2019-05-21T12:55:40Z</time>
      </trkpt>
      <trkpt lat="46.73296" lon="6.34707">
        <ele>1345</ele>
        <time>2019-05-21T12:55:52Z</time>
      </trkpt>
      <trkpt lat="46.73301" lon="6.34711">
        <ele>1346</ele>
        <time>2019-05-21T12:55:58Z</time>
      </trkpt>
      <trkpt lat="46.7331" lon="6.34727">
        <ele>1345</ele>
        <time>2019-05-21T12:56:21Z</time>
      </trkpt>
      <trkpt lat="46.73316" lon="6.34733">
        <ele>1347</ele>
        <time>2019-05-21T12:56:33Z</time>
      </trkpt>
      <trkpt lat="46.7332" lon="6.34737">
        <ele>1348</ele>
        <time>2019-05-21T12:56:45Z</time>
      </trkpt>
      <trkpt lat="46.73317" lon="6.34744">
        <ele>1349</ele>
        <time>2019-05-21T12:57:39Z</time>
      </trkpt>
      <trkpt lat="46.73314" lon="6.34751">
        <ele>1354</ele>
        <time>2019-05-21T13:01:14Z</time>
      </trkpt>
      <trkpt lat="46.73313" lon="6.34762">
        <ele>1354</ele>
        <time>2019-05-21T13:01:44Z</time>
      </trkpt>
      <trkpt lat="46.73313" lon="6.34775">
        <ele>1359</ele>
        <time>2019-05-21T13:01:56Z</time>
      </trkpt>
      <trkpt lat="46.73311" lon="6.34784">
        <ele>1359</ele>
        <time>2019-05-21T13:02:08Z</time>
      </trkpt>
      <trkpt lat="46.7331" lon="6.34792">
        <ele>1360</ele>
        <time>2019-05-21T13:02:20Z</time>
      </trkpt>
      <trkpt lat="46.73307" lon="6.3481">
        <ele>1365</ele>
        <time>2019-05-21T13:02:44Z</time>
      </trkpt>
      <trkpt lat="46.73308" lon="6.34817">
        <ele>1365</ele>
        <time>2019-05-21T13:02:50Z</time>
      </trkpt>
      <trkpt lat="46.73309" lon="6.3483">
        <ele>1364</ele>
        <time>2019-05-21T13:03:02Z</time>
      </trkpt>
      <trkpt lat="46.73309" lon="6.34837">
        <ele>1365</ele>
        <time>2019-05-21T13:03:07Z</time>
      </trkpt>
      <trkpt lat="46.73309" lon="6.34845">
        <ele>1366</ele>
        <time>2019-05-21T13:03:15Z</time>
      </trkpt>
      <trkpt lat="46.7331" lon="6.34858">
        <ele>1366</ele>
        <time>2019-05-21T13:03:27Z</time>
      </trkpt>
      <trkpt lat="46.73307" lon="6.34895">
        <ele>1369</ele>
        <time>2019-05-21T13:04:03Z</time>
      </trkpt>
      <trkpt lat="46.73306" lon="6.34933">
        <ele>1373</ele>
        <time>2019-05-21T13:04:38Z</time>
      </trkpt>
      <trkpt lat="46.73307" lon="6.34951">
        <ele>1376</ele>
        <time>2019-05-21T13:04:58Z</time>
      </trkpt>
      <trkpt lat="46.73308" lon="6.34964">
        <ele>1375</ele>
        <time>2019-05-21T13:05:10Z</time>
      </trkpt>
      <trkpt lat="46.7331" lon="6.34977">
        <ele>1375</ele>
        <time>2019-05-21T13:05:22Z</time>
      </trkpt>
      <trkpt lat="46.73321" lon="6.35014">
        <ele>1381</ele>
        <time>2019-05-21T13:05:56Z</time>
      </trkpt>
      <trkpt lat="46.73326" lon="6.35027">
        <ele>1382</ele>
        <time>2019-05-21T13:06:07Z</time>
      </trkpt>
      <trkpt lat="46.73332" lon="6.35046">
        <ele>1384</ele>
        <time>2019-05-21T13:06:21Z</time>
      </trkpt>
      <trkpt lat="46.73336" lon="6.35068">
        <ele>1389</ele>
        <time>2019-05-21T13:06:40Z</time>
      </trkpt>
      <trkpt lat="46.73338" lon="6.35074">
        <ele>1390</ele>
        <time>2019-05-21T13:06:46Z</time>
      </trkpt>
      <trkpt lat="46.73352" lon="6.35113">
        <ele>1393</ele>
        <time>2019-05-21T13:07:20Z</time>
      </trkpt>
      <trkpt lat="46.73355" lon="6.35119">
        <ele>1394</ele>
        <time>2019-05-21T13:07:25Z</time>
      </trkpt>
      <trkpt lat="46.7337" lon="6.35153">
        <ele>1398</ele>
        <time>2019-05-21T13:07:56Z</time>
      </trkpt>
      <trkpt lat="46.7339" lon="6.35184">
        <ele>1402</ele>
        <time>2019-05-21T13:08:28Z</time>
      </trkpt>
      <trkpt lat="46.73412" lon="6.35223">
        <ele>1405</ele>
        <time>2019-05-21T13:09:08Z</time>
      </trkpt>
      <trkpt lat="46.73419" lon="6.35257">
        <ele>1412</ele>
        <time>2019-05-21T13:10:00Z</time>
      </trkpt>
      <trkpt lat="46.73411" lon="6.35263">
        <ele>1412</ele>
        <time>2019-05-21T13:10:18Z</time>
      </trkpt>
      <trkpt lat="46.73403" lon="6.35267">
        <ele>1412</ele>
        <time>2019-05-21T13:10:29Z</time>
      </trkpt>
      <trkpt lat="46.73404" lon="6.35271">
        <ele>1417</ele>
        <time>2019-05-21T13:11:44Z</time>
      </trkpt>
      <trkpt lat="46.73398" lon="6.3527">
        <ele>1417</ele>
        <time>2019-05-21T13:13:02Z</time>
      </trkpt>
      <trkpt lat="46.73393" lon="6.35277">
        <ele>1418</ele>
        <time>2019-05-21T13:14:14Z</time>
      </trkpt>
      <trkpt lat="46.73393" lon="6.35284">
        <ele>1417</ele>
        <time>2019-05-21T13:14:19Z</time>
      </trkpt>
      <trkpt lat="46.73388" lon="6.3531">
        <ele>1419</ele>
        <time>2019-05-21T13:14:41Z</time>
      </trkpt>
      <trkpt lat="46.73385" lon="6.35316">
        <ele>1419</ele>
        <time>2019-05-21T13:14:46Z</time>
      </trkpt>
      <trkpt lat="46.7338" lon="6.3533">
        <ele>1419</ele>
        <time>2019-05-21T13:14:59Z</time>
      </trkpt>
      <trkpt lat="46.73372" lon="6.35344">
        <ele>1419</ele>
        <time>2019-05-21T13:15:13Z</time>
      </trkpt>
      <trkpt lat="46.73367" lon="6.35362">
        <ele>1420</ele>
        <time>2019-05-21T13:15:28Z</time>
      </trkpt>
      <trkpt lat="46.73363" lon="6.35366">
        <ele>1420</ele>
        <time>2019-05-21T13:15:33Z</time>
      </trkpt>
      <trkpt lat="46.73356" lon="6.35381">
        <ele>1421</ele>
        <time>2019-05-21T13:15:48Z</time>
      </trkpt>
      <trkpt lat="46.73354" lon="6.35388">
        <ele>1422</ele>
        <time>2019-05-21T13:15:55Z</time>
      </trkpt>
      <trkpt lat="46.73348" lon="6.354">
        <ele>1422</ele>
        <time>2019-05-21T13:16:07Z</time>
      </trkpt>
      <trkpt lat="46.73346" lon="6.35407">
        <ele>1422</ele>
        <time>2019-05-21T13:16:15Z</time>
      </trkpt>
      <trkpt lat="46.73336" lon="6.35442">
        <ele>1425</ele>
        <time>2019-05-21T13:16:53Z</time>
      </trkpt>
      <trkpt lat="46.73334" lon="6.3545">
        <ele>1427</ele>
        <time>2019-05-21T13:17:05Z</time>
      </trkpt>
      <trkpt lat="46.73333" lon="6.35457">
        <ele>1426</ele>
        <time>2019-05-21T13:17:11Z</time>
      </trkpt>
      <trkpt lat="46.73326" lon="6.35473">
        <ele>1428</ele>
        <time>2019-05-21T13:17:29Z</time>
      </trkpt>
      <trkpt lat="46.73323" lon="6.3548">
        <ele>1428</ele>
        <time>2019-05-21T13:17:34Z</time>
      </trkpt>
      <trkpt lat="46.73315" lon="6.35487">
        <ele>1428</ele>
        <time>2019-05-21T13:17:43Z</time>
      </trkpt>
      <trkpt lat="46.73305" lon="6.35503">
        <ele>1429</ele>
        <time>2019-05-21T13:17:57Z</time>
      </trkpt>
      <trkpt lat="46.733" lon="6.35508">
        <ele>1429</ele>
        <time>2019-05-21T13:18:02Z</time>
      </trkpt>
      <trkpt lat="46.73296" lon="6.35512">
        <ele>1430</ele>
        <time>2019-05-21T13:18:07Z</time>
      </trkpt>
      <trkpt lat="46.73292" lon="6.35515">
        <ele>1430</ele>
        <time>2019-05-21T13:18:12Z</time>
      </trkpt>
      <trkpt lat="46.73287" lon="6.35521">
        <ele>1431</ele>
        <time>2019-05-21T13:18:19Z</time>
      </trkpt>
      <trkpt lat="46.73278" lon="6.35533">
        <ele>1430</ele>
        <time>2019-05-21T13:18:32Z</time>
      </trkpt>
      <trkpt lat="46.73273" lon="6.35536">
        <ele>1430</ele>
        <time>2019-05-21T13:18:37Z</time>
      </trkpt>
      <trkpt lat="46.73256" lon="6.35557">
        <ele>1429</ele>
        <time>2019-05-21T13:19:00Z</time>
      </trkpt>
      <trkpt lat="46.7325" lon="6.3556">
        <ele>1431</ele>
        <time>2019-05-21T13:19:07Z</time>
      </trkpt>
      <trkpt lat="46.73244" lon="6.35565">
        <ele>1431</ele>
        <time>2019-05-21T13:19:14Z</time>
      </trkpt>
      <trkpt lat="46.7324" lon="6.35569">
        <ele>1431</ele>
        <time>2019-05-21T13:19:20Z</time>
      </trkpt>
      <trkpt lat="46.73238" lon="6.35575">
        <ele>1431</ele>
        <time>2019-05-21T13:19:25Z</time>
      </trkpt>
      <trkpt lat="46.73238" lon="6.35584">
        <ele>1432</ele>
        <time>2019-05-21T13:19:32Z</time>
      </trkpt>
      <trkpt lat="46.73242" lon="6.35616">
        <ele>1434</ele>
        <time>2019-05-21T13:20:04Z</time>
      </trkpt>
      <trkpt lat="46.73242" lon="6.35636">
        <ele>1436</ele>
        <time>2019-05-21T13:20:23Z</time>
      </trkpt>
      <trkpt lat="46.73238" lon="6.35643">
        <ele>1438</ele>
        <time>2019-05-21T13:20:35Z</time>
      </trkpt>
      <trkpt lat="46.7323" lon="6.35651">
        <ele>1439</ele>
        <time>2019-05-21T13:20:46Z</time>
      </trkpt>
      <trkpt lat="46.73225" lon="6.35657">
        <ele>1439</ele>
        <time>2019-05-21T13:20:53Z</time>
      </trkpt>
      <trkpt lat="46.73213" lon="6.35668">
        <ele>1441</ele>
        <time>2019-05-21T13:21:07Z</time>
      </trkpt>
      <trkpt lat="46.73206" lon="6.35674">
        <ele>1441</ele>
        <time>2019-05-21T13:21:15Z</time>
      </trkpt>
      <trkpt lat="46.73201" lon="6.35678">
        <ele>1440</ele>
        <time>2019-05-21T13:21:19Z</time>
      </trkpt>
      <trkpt lat="46.73191" lon="6.35685">
        <ele>1441</ele>
        <time>2019-05-21T13:21:32Z</time>
      </trkpt>
      <trkpt lat="46.73184" lon="6.35688">
        <ele>1440</ele>
        <time>2019-05-21T13:21:45Z</time>
      </trkpt>
      <trkpt lat="46.73179" lon="6.35688">
        <ele>1441</ele>
        <time>2019-05-21T13:21:49Z</time>
      </trkpt>
      <trkpt lat="46.73175" lon="6.35689">
        <ele>1440</ele>
        <time>2019-05-21T13:21:53Z</time>
      </trkpt>
      <trkpt lat="46.7317" lon="6.35692">
        <ele>1439</ele>
        <time>2019-05-21T13:21:58Z</time>
      </trkpt>
      <trkpt lat="46.73164" lon="6.35694">
        <ele>1439</ele>
        <time>2019-05-21T13:22:05Z</time>
      </trkpt>
      <trkpt lat="46.73159" lon="6.35693">
        <ele>1438</ele>
        <time>2019-05-21T13:22:10Z</time>
      </trkpt>
      <trkpt lat="46.73149" lon="6.35696">
        <ele>1438</ele>
        <time>2019-05-21T13:22:29Z</time>
      </trkpt>
      <trkpt lat="46.73144" lon="6.35698">
        <ele>1437</ele>
        <time>2019-05-21T13:22:34Z</time>
      </trkpt>
      <trkpt lat="46.73139" lon="6.35698">
        <ele>1437</ele>
        <time>2019-05-21T13:22:39Z</time>
      </trkpt>
      <trkpt lat="46.7313" lon="6.35702">
        <ele>1438</ele>
        <time>2019-05-21T13:22:58Z</time>
      </trkpt>
      <trkpt lat="46.73113" lon="6.35708">
        <ele>1437</ele>
        <time>2019-05-21T13:23:18Z</time>
      </trkpt>
      <trkpt lat="46.73103" lon="6.35709">
        <ele>1438</ele>
        <time>2019-05-21T13:23:30Z</time>
      </trkpt>
      <trkpt lat="46.73098" lon="6.35708">
        <ele>1437</ele>
        <time>2019-05-21T13:23:35Z</time>
      </trkpt>
      <trkpt lat="46.73093" lon="6.3571">
        <ele>1436</ele>
        <time>2019-05-21T13:23:40Z</time>
      </trkpt>
      <trkpt lat="46.73084" lon="6.35712">
        <ele>1436</ele>
        <time>2019-05-21T13:23:50Z</time>
      </trkpt>
      <trkpt lat="46.73079" lon="6.35713">
        <ele>1436</ele>
        <time>2019-05-21T13:24:13Z</time>
      </trkpt>
      <trkpt lat="46.73074" lon="6.35713">
        <ele>1437</ele>
        <time>2019-05-21T13:24:19Z</time>
      </trkpt>
      <trkpt lat="46.73065" lon="6.35717">
        <ele>1439</ele>
        <time>2019-05-21T13:24:31Z</time>
      </trkpt>
      <trkpt lat="46.7306" lon="6.35724">
        <ele>1437</ele>
        <time>2019-05-21T13:24:42Z</time>
      </trkpt>
      <trkpt lat="46.73056" lon="6.35729">
        <ele>1436</ele>
        <time>2019-05-21T13:24:50Z</time>
      </trkpt>
      <trkpt lat="46.73053" lon="6.35738">
        <ele>1434</ele>
        <time>2019-05-21T13:25:20Z</time>
      </trkpt>
      <trkpt lat="46.73047" lon="6.35741">
        <ele>1437</ele>
        <time>2019-05-21T13:27:31Z</time>
      </trkpt>
      <trkpt lat="46.73041" lon="6.3574">
        <ele>1433</ele>
        <time>2019-05-21T13:27:38Z</time>
      </trkpt>
      <trkpt lat="46.73034" lon="6.35741">
        <ele>1434</ele>
        <time>2019-05-21T13:27:53Z</time>
      </trkpt>
      <trkpt lat="46.73033" lon="6.35732">
        <ele>1438</ele>
        <time>2019-05-21T13:28:52Z</time>
      </trkpt>
      <trkpt lat="46.73032" lon="6.35723">
        <ele>1434</ele>
        <time>2019-05-21T13:29:22Z</time>
      </trkpt>
      <trkpt lat="46.73025" lon="6.35717">
        <ele>1437</ele>
        <time>2019-05-21T13:29:34Z</time>
      </trkpt>
      <trkpt lat="46.73018" lon="6.35715">
        <ele>1439</ele>
        <time>2019-05-21T13:29:46Z</time>
      </trkpt>
      <trkpt lat="46.73012" lon="6.35712">
        <ele>1440</ele>
        <time>2019-05-21T13:29:58Z</time>
      </trkpt>
      <trkpt lat="46.73003" lon="6.35712">
        <ele>1443</ele>
        <time>2019-05-21T13:30:27Z</time>
      </trkpt>
      <trkpt lat="46.72998" lon="6.35713">
        <ele>1445</ele>
        <time>2019-05-21T13:30:39Z</time>
      </trkpt>
      <trkpt lat="46.72994" lon="6.3571">
        <ele>1445</ele>
        <time>2019-05-21T13:30:45Z</time>
      </trkpt>
      <trkpt lat="46.72986" lon="6.3571">
        <ele>1445</ele>
        <time>2019-05-21T13:30:57Z</time>
      </trkpt>
      <trkpt lat="46.72981" lon="6.35709">
        <ele>1447</ele>
        <time>2019-05-21T13:31:21Z</time>
      </trkpt>
      <trkpt lat="46.72974" lon="6.35708">
        <ele>1447</ele>
        <time>2019-05-21T13:32:39Z</time>
      </trkpt>
      <trkpt lat="46.72967" lon="6.35712">
        <ele>1444</ele>
        <time>2019-05-21T13:32:51Z</time>
      </trkpt>
      <trkpt lat="46.72949" lon="6.35712">
        <ele>1448</ele>
        <time>2019-05-21T13:33:21Z</time>
      </trkpt>
      <trkpt lat="46.72944" lon="6.35709">
        <ele>1450</ele>
        <time>2019-05-21T13:33:33Z</time>
      </trkpt>
      <trkpt lat="46.72938" lon="6.35711">
        <ele>1451</ele>
        <time>2019-05-21T13:33:45Z</time>
      </trkpt>
      <trkpt lat="46.72931" lon="6.35713">
        <ele>1450</ele>
        <time>2019-05-21T13:33:57Z</time>
      </trkpt>
      <trkpt lat="46.72925" lon="6.35713">
        <ele>1452</ele>
        <time>2019-05-21T13:34:09Z</time>
      </trkpt>
      <trkpt lat="46.7292" lon="6.35716">
        <ele>1454</ele>
        <time>2019-05-21T13:34:33Z</time>
      </trkpt>
      <trkpt lat="46.72916" lon="6.35713">
        <ele>1456</ele>
        <time>2019-05-21T13:37:09Z</time>
      </trkpt>
      <trkpt lat="46.7291" lon="6.35712">
        <ele>1455</ele>
        <time>2019-05-21T13:37:21Z</time>
      </trkpt>
      <trkpt lat="46.72904" lon="6.35712">
        <ele>1456</ele>
        <time>2019-05-21T13:37:27Z</time>
      </trkpt>
      <trkpt lat="46.72901" lon="6.35715">
        <ele>1458</ele>
        <time>2019-05-21T13:38:00Z</time>
      </trkpt>
      <trkpt lat="46.72893" lon="6.35716">
        <ele>1460</ele>
        <time>2019-05-21T13:39:10Z</time>
      </trkpt>
      <trkpt lat="46.72889" lon="6.35717">
        <ele>1459</ele>
        <time>2019-05-21T13:39:15Z</time>
      </trkpt>
      <trkpt lat="46.72882" lon="6.35718">
        <ele>1459</ele>
        <time>2019-05-21T13:39:22Z</time>
      </trkpt>
      <trkpt lat="46.72877" lon="6.35718">
        <ele>1459</ele>
        <time>2019-05-21T13:39:27Z</time>
      </trkpt>
      <trkpt lat="46.7287" lon="6.35717">
        <ele>1460</ele>
        <time>2019-05-21T13:39:35Z</time>
      </trkpt>
      <trkpt lat="46.72865" lon="6.35718">
        <ele>1459</ele>
        <time>2019-05-21T13:39:40Z</time>
      </trkpt>
      <trkpt lat="46.72848" lon="6.35715">
        <ele>1461</ele>
        <time>2019-05-21T13:39:59Z</time>
      </trkpt>
      <trkpt lat="46.72838" lon="6.35714">
        <ele>1460</ele>
        <time>2019-05-21T13:40:09Z</time>
      </trkpt>
      <trkpt lat="46.72833" lon="6.35715">
        <ele>1460</ele>
        <time>2019-05-21T13:40:17Z</time>
      </trkpt>
      <trkpt lat="46.72826" lon="6.35713">
        <ele>1459</ele>
        <time>2019-05-21T13:40:39Z</time>
      </trkpt>
      <trkpt lat="46.72816" lon="6.35711">
        <ele>1457</ele>
        <time>2019-05-21T13:40:49Z</time>
      </trkpt>
      <trkpt lat="46.7281" lon="6.35715">
        <ele>1457</ele>
        <time>2019-05-21T13:40:57Z</time>
      </trkpt>
      <trkpt lat="46.72806" lon="6.35716">
        <ele>1458</ele>
        <time>2019-05-21T13:41:03Z</time>
      </trkpt>
      <trkpt lat="46.728" lon="6.3572">
        <ele>1458</ele>
        <time>2019-05-21T13:41:15Z</time>
      </trkpt>
      <trkpt lat="46.72794" lon="6.3572">
        <ele>1457</ele>
        <time>2019-05-21T13:41:39Z</time>
      </trkpt>
      <trkpt lat="46.7279" lon="6.35718">
        <ele>1459</ele>
        <time>2019-05-21T13:42:03Z</time>
      </trkpt>
      <trkpt lat="46.72785" lon="6.35716">
        <ele>1459</ele>
        <time>2019-05-21T13:43:57Z</time>
      </trkpt>
      <trkpt lat="46.72783" lon="6.35708">
        <ele>1460</ele>
        <time>2019-05-21T13:44:21Z</time>
      </trkpt>
      <trkpt lat="46.72777" lon="6.35705">
        <ele>1462</ele>
        <time>2019-05-21T13:44:33Z</time>
      </trkpt>
      <trkpt lat="46.7277" lon="6.35706">
        <ele>1462</ele>
        <time>2019-05-21T13:44:45Z</time>
      </trkpt>
      <trkpt lat="46.72762" lon="6.35708">
        <ele>1462</ele>
        <time>2019-05-21T13:44:57Z</time>
      </trkpt>
      <trkpt lat="46.72757" lon="6.35706">
        <ele>1463</ele>
        <time>2019-05-21T13:46:15Z</time>
      </trkpt>
      <trkpt lat="46.72752" lon="6.35708">
        <ele>1465</ele>
        <time>2019-05-21T13:46:21Z</time>
      </trkpt>
      <trkpt lat="46.72746" lon="6.35709">
        <ele>1465</ele>
        <time>2019-05-21T13:46:29Z</time>
      </trkpt>
      <trkpt lat="46.72742" lon="6.35708">
        <ele>1466</ele>
        <time>2019-05-21T13:46:34Z</time>
      </trkpt>
      <trkpt lat="46.72737" lon="6.35708">
        <ele>1464</ele>
        <time>2019-05-21T13:46:46Z</time>
      </trkpt>
      <trkpt lat="46.72732" lon="6.35707">
        <ele>1463</ele>
        <time>2019-05-21T13:46:52Z</time>
      </trkpt>
      <trkpt lat="46.72726" lon="6.35708">
        <ele>1462</ele>
        <time>2019-05-21T13:47:04Z</time>
      </trkpt>
      <trkpt lat="46.72719" lon="6.35704">
        <ele>1461</ele>
        <time>2019-05-21T13:47:16Z</time>
      </trkpt>
      <trkpt lat="46.72711" lon="6.35699">
        <ele>1459</ele>
        <time>2019-05-21T13:47:28Z</time>
      </trkpt>
      <trkpt lat="46.72708" lon="6.35694">
        <ele>1459</ele>
        <time>2019-05-21T13:47:33Z</time>
      </trkpt>
      <trkpt lat="46.72702" lon="6.3569">
        <ele>1458</ele>
        <time>2019-05-21T13:47:42Z</time>
      </trkpt>
      <trkpt lat="46.72697" lon="6.35681">
        <ele>1458</ele>
        <time>2019-05-21T13:47:54Z</time>
      </trkpt>
      <trkpt lat="46.72695" lon="6.35675">
        <ele>1458</ele>
        <time>2019-05-21T13:48:06Z</time>
      </trkpt>
      <trkpt lat="46.72687" lon="6.35674">
        <ele>1457</ele>
        <time>2019-05-21T13:48:55Z</time>
      </trkpt>
      <trkpt lat="46.7268" lon="6.35678">
        <ele>1459</ele>
        <time>2019-05-21T13:49:07Z</time>
      </trkpt>
      <trkpt lat="46.72675" lon="6.35676">
        <ele>1454</ele>
        <time>2019-05-21T13:49:14Z</time>
      </trkpt>
      <trkpt lat="46.7267" lon="6.35677">
        <ele>1455</ele>
        <time>2019-05-21T13:49:34Z</time>
      </trkpt>
      <trkpt lat="46.72661" lon="6.35681">
        <ele>1453</ele>
        <time>2019-05-21T13:50:11Z</time>
      </trkpt>
      <trkpt lat="46.72656" lon="6.35682">
        <ele>1453</ele>
        <time>2019-05-21T13:50:16Z</time>
      </trkpt>
      <trkpt lat="46.72649" lon="6.35686">
        <ele>1455</ele>
        <time>2019-05-21T13:50:24Z</time>
      </trkpt>
      <trkpt lat="46.7264" lon="6.35692">
        <ele>1455</ele>
        <time>2019-05-21T13:50:34Z</time>
      </trkpt>
      <trkpt lat="46.72635" lon="6.35694">
        <ele>1454</ele>
        <time>2019-05-21T13:50:39Z</time>
      </trkpt>
      <trkpt lat="46.7263" lon="6.35698">
        <ele>1454</ele>
        <time>2019-05-21T13:50:46Z</time>
      </trkpt>
      <trkpt lat="46.72626" lon="6.35703">
        <ele>1454</ele>
        <time>2019-05-21T13:50:51Z</time>
      </trkpt>
      <trkpt lat="46.72622" lon="6.35707">
        <ele>1453</ele>
        <time>2019-05-21T13:51:02Z</time>
      </trkpt>
      <trkpt lat="46.72614" lon="6.35716">
        <ele>1454</ele>
        <time>2019-05-21T13:51:15Z</time>
      </trkpt>
      <trkpt lat="46.7261" lon="6.35721">
        <ele>1454</ele>
        <time>2019-05-21T13:51:20Z</time>
      </trkpt>
      <trkpt lat="46.72606" lon="6.35725">
        <ele>1454</ele>
        <time>2019-05-21T13:51:25Z</time>
      </trkpt>
      <trkpt lat="46.72599" lon="6.3573">
        <ele>1454</ele>
        <time>2019-05-21T13:51:36Z</time>
      </trkpt>
      <trkpt lat="46.72594" lon="6.3573">
        <ele>1452</ele>
        <time>2019-05-21T13:51:42Z</time>
      </trkpt>
      <trkpt lat="46.7258" lon="6.35743">
        <ele>1449</ele>
        <time>2019-05-21T13:52:02Z</time>
      </trkpt>
      <trkpt lat="46.72576" lon="6.35747">
        <ele>1448</ele>
        <time>2019-05-21T13:52:08Z</time>
      </trkpt>
      <trkpt lat="46.72571" lon="6.35747">
        <ele>1446</ele>
        <time>2019-05-21T13:52:14Z</time>
      </trkpt>
      <trkpt lat="46.72567" lon="6.35743">
        <ele>1444</ele>
        <time>2019-05-21T13:52:19Z</time>
      </trkpt>
      <trkpt lat="46.72556" lon="6.35752">
        <ele>1443</ele>
        <time>2019-05-21T13:52:34Z</time>
      </trkpt>
      <trkpt lat="46.72552" lon="6.35755">
        <ele>1442</ele>
        <time>2019-05-21T13:52:40Z</time>
      </trkpt>
      <trkpt lat="46.72547" lon="6.35756">
        <ele>1442</ele>
        <time>2019-05-21T13:52:46Z</time>
      </trkpt>
      <trkpt lat="46.7254" lon="6.35759">
        <ele>1440</ele>
        <time>2019-05-21T13:52:58Z</time>
      </trkpt>
      <trkpt lat="46.7252" lon="6.35762">
        <ele>1435</ele>
        <time>2019-05-21T13:53:28Z</time>
      </trkpt>
      <trkpt lat="46.72515" lon="6.35768">
        <ele>1433</ele>
        <time>2019-05-21T13:53:40Z</time>
      </trkpt>
      <trkpt lat="46.72509" lon="6.35781">
        <ele>1432</ele>
        <time>2019-05-21T13:53:51Z</time>
      </trkpt>
      <trkpt lat="46.72505" lon="6.35788">
        <ele>1431</ele>
        <time>2019-05-21T13:53:59Z</time>
      </trkpt>
      <trkpt lat="46.72503" lon="6.35795">
        <ele>1431</ele>
        <time>2019-05-21T13:54:05Z</time>
      </trkpt>
      <trkpt lat="46.72499" lon="6.358">
        <ele>1430</ele>
        <time>2019-05-21T13:54:11Z</time>
      </trkpt>
      <trkpt lat="46.72494" lon="6.35803">
        <ele>1430</ele>
        <time>2019-05-21T13:54:17Z</time>
      </trkpt>
      <trkpt lat="46.72488" lon="6.3581">
        <ele>1427</ele>
        <time>2019-05-21T13:54:28Z</time>
      </trkpt>
      <trkpt lat="46.72483" lon="6.3581">
        <ele>1426</ele>
        <time>2019-05-21T13:54:34Z</time>
      </trkpt>
      <trkpt lat="46.72478" lon="6.35816">
        <ele>1425</ele>
        <time>2019-05-21T13:54:42Z</time>
      </trkpt>
      <trkpt lat="46.72467" lon="6.35826">
        <ele>1423</ele>
        <time>2019-05-21T13:55:00Z</time>
      </trkpt>
      <trkpt lat="46.72464" lon="6.35832">
        <ele>1423</ele>
        <time>2019-05-21T13:55:05Z</time>
      </trkpt>
      <trkpt lat="46.72459" lon="6.35837">
        <ele>1422</ele>
        <time>2019-05-21T13:55:12Z</time>
      </trkpt>
      <trkpt lat="46.72455" lon="6.35844">
        <ele>1421</ele>
        <time>2019-05-21T13:55:20Z</time>
      </trkpt>
      <trkpt lat="46.72446" lon="6.35851">
        <ele>1419</ele>
        <time>2019-05-21T13:55:32Z</time>
      </trkpt>
      <trkpt lat="46.72442" lon="6.35853">
        <ele>1418</ele>
        <time>2019-05-21T13:55:38Z</time>
      </trkpt>
      <trkpt lat="46.72437" lon="6.35863">
        <ele>1418</ele>
        <time>2019-05-21T13:55:50Z</time>
      </trkpt>
      <trkpt lat="46.72432" lon="6.35866">
        <ele>1416</ele>
        <time>2019-05-21T13:55:56Z</time>
      </trkpt>
      <trkpt lat="46.72422" lon="6.35869">
        <ele>1414</ele>
        <time>2019-05-21T13:56:07Z</time>
      </trkpt>
      <trkpt lat="46.72418" lon="6.35872">
        <ele>1414</ele>
        <time>2019-05-21T13:56:11Z</time>
      </trkpt>
      <trkpt lat="46.72414" lon="6.35877">
        <ele>1413</ele>
        <time>2019-05-21T13:56:16Z</time>
      </trkpt>
      <trkpt lat="46.72409" lon="6.35881">
        <ele>1411</ele>
        <time>2019-05-21T13:56:23Z</time>
      </trkpt>
      <trkpt lat="46.72402" lon="6.35886">
        <ele>1411</ele>
        <time>2019-05-21T13:56:32Z</time>
      </trkpt>
      <trkpt lat="46.72395" lon="6.35889">
        <ele>1409</ele>
        <time>2019-05-21T13:56:44Z</time>
      </trkpt>
      <trkpt lat="46.72387" lon="6.35905">
        <ele>1406</ele>
        <time>2019-05-21T13:57:02Z</time>
      </trkpt>
      <trkpt lat="46.72383" lon="6.3591">
        <ele>1406</ele>
        <time>2019-05-21T13:57:08Z</time>
      </trkpt>
      <trkpt lat="46.72376" lon="6.3591">
        <ele>1405</ele>
        <time>2019-05-21T13:57:16Z</time>
      </trkpt>
      <trkpt lat="46.72365" lon="6.35916">
        <ele>1403</ele>
        <time>2019-05-21T13:57:34Z</time>
      </trkpt>
      <trkpt lat="46.72361" lon="6.3592">
        <ele>1401</ele>
        <time>2019-05-21T13:57:46Z</time>
      </trkpt>
      <trkpt lat="46.72356" lon="6.35921">
        <ele>1400</ele>
        <time>2019-05-21T13:57:52Z</time>
      </trkpt>
      <trkpt lat="46.72335" lon="6.35932">
        <ele>1397</ele>
        <time>2019-05-21T13:58:21Z</time>
      </trkpt>
      <trkpt lat="46.72324" lon="6.35935">
        <ele>1396</ele>
        <time>2019-05-21T13:58:36Z</time>
      </trkpt>
      <trkpt lat="46.72313" lon="6.35951">
        <ele>1393</ele>
        <time>2019-05-21T13:59:00Z</time>
      </trkpt>
      <trkpt lat="46.72309" lon="6.35955">
        <ele>1393</ele>
        <time>2019-05-21T13:59:06Z</time>
      </trkpt>
      <trkpt lat="46.72304" lon="6.35961">
        <ele>1393</ele>
        <time>2019-05-21T13:59:13Z</time>
      </trkpt>
      <trkpt lat="46.72298" lon="6.35968">
        <ele>1391</ele>
        <time>2019-05-21T13:59:23Z</time>
      </trkpt>
      <trkpt lat="46.72293" lon="6.35969">
        <ele>1390</ele>
        <time>2019-05-21T13:59:29Z</time>
      </trkpt>
      <trkpt lat="46.72288" lon="6.3597">
        <ele>1390</ele>
        <time>2019-05-21T13:59:33Z</time>
      </trkpt>
      <trkpt lat="46.72281" lon="6.35969">
        <ele>1390</ele>
        <time>2019-05-21T13:59:44Z</time>
      </trkpt>
      <trkpt lat="46.72274" lon="6.35969">
        <ele>1388</ele>
        <time>2019-05-21T13:59:56Z</time>
      </trkpt>
      <trkpt lat="46.72268" lon="6.35969">
        <ele>1390</ele>
        <time>2019-05-21T14:00:08Z</time>
      </trkpt>
      <trkpt lat="46.72263" lon="6.35974">
        <ele>1390</ele>
        <time>2019-05-21T14:00:20Z</time>
      </trkpt>
      <trkpt lat="46.72258" lon="6.35975">
        <ele>1389</ele>
        <time>2019-05-21T14:00:32Z</time>
      </trkpt>
      <trkpt lat="46.72252" lon="6.35973">
        <ele>1389</ele>
        <time>2019-05-21T14:00:55Z</time>
      </trkpt>
      <trkpt lat="46.72248" lon="6.35968">
        <ele>1390</ele>
        <time>2019-05-21T14:01:01Z</time>
      </trkpt>
      <trkpt lat="46.72241" lon="6.35958">
        <ele>1387</ele>
        <time>2019-05-21T14:01:25Z</time>
      </trkpt>
      <trkpt lat="46.72233" lon="6.3595">
        <ele>1383</ele>
        <time>2019-05-21T14:02:55Z</time>
      </trkpt>
      <trkpt lat="46.72233" lon="6.35942">
        <ele>1381</ele>
        <time>2019-05-21T14:05:13Z</time>
      </trkpt>
      <trkpt lat="46.72203" lon="6.35928">
        <ele>1381</ele>
        <time>2019-05-21T14:28:31Z</time>
      </trkpt>
      <trkpt lat="46.72196" lon="6.35921">
        <ele>1380</ele>
        <time>2019-05-21T14:28:40Z</time>
      </trkpt>
      <trkpt lat="46.72189" lon="6.35912">
        <ele>1380</ele>
        <time>2019-05-21T14:28:47Z</time>
      </trkpt>
      <trkpt lat="46.72175" lon="6.35901">
        <ele>1381</ele>
        <time>2019-05-21T14:29:05Z</time>
      </trkpt>
      <trkpt lat="46.72167" lon="6.35898">
        <ele>1380</ele>
        <time>2019-05-21T14:29:14Z</time>
      </trkpt>
      <trkpt lat="46.72148" lon="6.35883">
        <ele>1382</ele>
        <time>2019-05-21T14:29:36Z</time>
      </trkpt>
      <trkpt lat="46.72141" lon="6.35873">
        <ele>1382</ele>
        <time>2019-05-21T14:29:46Z</time>
      </trkpt>
      <trkpt lat="46.72133" lon="6.35864">
        <ele>1382</ele>
        <time>2019-05-21T14:30:18Z</time>
      </trkpt>
      <trkpt lat="46.72126" lon="6.35854">
        <ele>1381</ele>
        <time>2019-05-21T14:30:31Z</time>
      </trkpt>
      <trkpt lat="46.72121" lon="6.35852">
        <ele>1380</ele>
        <time>2019-05-21T14:30:35Z</time>
      </trkpt>
      <trkpt lat="46.72116" lon="6.35848">
        <ele>1381</ele>
        <time>2019-05-21T14:30:40Z</time>
      </trkpt>
      <trkpt lat="46.72112" lon="6.35844">
        <ele>1380</ele>
        <time>2019-05-21T14:30:44Z</time>
      </trkpt>
      <trkpt lat="46.72099" lon="6.35835">
        <ele>1377</ele>
        <time>2019-05-21T14:30:59Z</time>
      </trkpt>
      <trkpt lat="46.72094" lon="6.35832">
        <ele>1378</ele>
        <time>2019-05-21T14:31:04Z</time>
      </trkpt>
      <trkpt lat="46.7209" lon="6.35828">
        <ele>1377</ele>
        <time>2019-05-21T14:31:08Z</time>
      </trkpt>
      <trkpt lat="46.72087" lon="6.35823">
        <ele>1377</ele>
        <time>2019-05-21T14:31:12Z</time>
      </trkpt>
      <trkpt lat="46.72083" lon="6.3582">
        <ele>1378</ele>
        <time>2019-05-21T14:31:16Z</time>
      </trkpt>
      <trkpt lat="46.7207" lon="6.35808">
        <ele>1377</ele>
        <time>2019-05-21T14:31:30Z</time>
      </trkpt>
      <trkpt lat="46.72063" lon="6.35805">
        <ele>1376</ele>
        <time>2019-05-21T14:31:40Z</time>
      </trkpt>
      <trkpt lat="46.72059" lon="6.358">
        <ele>1374</ele>
        <time>2019-05-21T14:31:52Z</time>
      </trkpt>
      <trkpt lat="46.72056" lon="6.35794">
        <ele>1374</ele>
        <time>2019-05-21T14:31:58Z</time>
      </trkpt>
      <trkpt lat="46.72052" lon="6.3579">
        <ele>1373</ele>
        <time>2019-05-21T14:32:02Z</time>
      </trkpt>
      <trkpt lat="46.72048" lon="6.35786">
        <ele>1373</ele>
        <time>2019-05-21T14:32:06Z</time>
      </trkpt>
      <trkpt lat="46.72042" lon="6.35784">
        <ele>1372</ele>
        <time>2019-05-21T14:32:10Z</time>
      </trkpt>
      <trkpt lat="46.72038" lon="6.35781">
        <ele>1372</ele>
        <time>2019-05-21T14:32:13Z</time>
      </trkpt>
      <trkpt lat="46.72032" lon="6.35777">
        <ele>1370</ele>
        <time>2019-05-21T14:32:23Z</time>
      </trkpt>
      <trkpt lat="46.72018" lon="6.35763">
        <ele>1370</ele>
        <time>2019-05-21T14:32:39Z</time>
      </trkpt>
      <trkpt lat="46.71999" lon="6.35751">
        <ele>1369</ele>
        <time>2019-05-21T14:33:08Z</time>
      </trkpt>
      <trkpt lat="46.71993" lon="6.35746">
        <ele>1370</ele>
        <time>2019-05-21T14:33:19Z</time>
      </trkpt>
      <trkpt lat="46.71989" lon="6.35742">
        <ele>1370</ele>
        <time>2019-05-21T14:33:27Z</time>
      </trkpt>
      <trkpt lat="46.71981" lon="6.35736">
        <ele>1371</ele>
        <time>2019-05-21T14:33:37Z</time>
      </trkpt>
      <trkpt lat="46.71977" lon="6.35733">
        <ele>1370</ele>
        <time>2019-05-21T14:33:45Z</time>
      </trkpt>
      <trkpt lat="46.71974" lon="6.35728">
        <ele>1369</ele>
        <time>2019-05-21T14:34:39Z</time>
      </trkpt>
      <trkpt lat="46.71972" lon="6.3572">
        <ele>1368</ele>
        <time>2019-05-21T14:35:15Z</time>
      </trkpt>
      <trkpt lat="46.71969" lon="6.35715">
        <ele>1367</ele>
        <time>2019-05-21T14:35:20Z</time>
      </trkpt>
      <trkpt lat="46.71965" lon="6.35709">
        <ele>1367</ele>
        <time>2019-05-21T14:35:31Z</time>
      </trkpt>
      <trkpt lat="46.7196" lon="6.35692">
        <ele>1363</ele>
        <time>2019-05-21T14:36:41Z</time>
      </trkpt>
      <trkpt lat="46.71956" lon="6.35683">
        <ele>1363</ele>
        <time>2019-05-21T14:36:48Z</time>
      </trkpt>
      <trkpt lat="46.71948" lon="6.35673">
        <ele>1364</ele>
        <time>2019-05-21T14:36:58Z</time>
      </trkpt>
      <trkpt lat="46.71948" lon="6.35664">
        <ele>1363</ele>
        <time>2019-05-21T14:37:06Z</time>
      </trkpt>
      <trkpt lat="46.71944" lon="6.3566">
        <ele>1363</ele>
        <time>2019-05-21T14:37:12Z</time>
      </trkpt>
      <trkpt lat="46.71943" lon="6.35649">
        <ele>1362</ele>
        <time>2019-05-21T14:37:23Z</time>
      </trkpt>
      <trkpt lat="46.71941" lon="6.35638">
        <ele>1360</ele>
        <time>2019-05-21T14:37:33Z</time>
      </trkpt>
      <trkpt lat="46.71942" lon="6.35627">
        <ele>1359</ele>
        <time>2019-05-21T14:37:42Z</time>
      </trkpt>
      <trkpt lat="46.71938" lon="6.35622">
        <ele>1358</ele>
        <time>2019-05-21T14:37:46Z</time>
      </trkpt>
      <trkpt lat="46.71929" lon="6.35615">
        <ele>1356</ele>
        <time>2019-05-21T14:37:54Z</time>
      </trkpt>
      <trkpt lat="46.71912" lon="6.35577">
        <ele>1353</ele>
        <time>2019-05-21T14:38:32Z</time>
      </trkpt>
      <trkpt lat="46.71906" lon="6.35567">
        <ele>1352</ele>
        <time>2019-05-21T14:38:49Z</time>
      </trkpt>
      <trkpt lat="46.71904" lon="6.35553">
        <ele>1353</ele>
        <time>2019-05-21T14:39:19Z</time>
      </trkpt>
      <trkpt lat="46.71897" lon="6.35543">
        <ele>1353</ele>
        <time>2019-05-21T14:39:27Z</time>
      </trkpt>
      <trkpt lat="46.71891" lon="6.35533">
        <ele>1349</ele>
        <time>2019-05-21T14:39:48Z</time>
      </trkpt>
      <trkpt lat="46.71888" lon="6.3552">
        <ele>1347</ele>
        <time>2019-05-21T14:40:07Z</time>
      </trkpt>
      <trkpt lat="46.71881" lon="6.35505">
        <ele>1346</ele>
        <time>2019-05-21T14:40:23Z</time>
      </trkpt>
      <trkpt lat="46.71876" lon="6.35491">
        <ele>1346</ele>
        <time>2019-05-21T14:40:39Z</time>
      </trkpt>
      <trkpt lat="46.71861" lon="6.35454">
        <ele>1343</ele>
        <time>2019-05-21T14:41:05Z</time>
      </trkpt>
      <trkpt lat="46.71854" lon="6.35441">
        <ele>1339</ele>
        <time>2019-05-21T14:41:27Z</time>
      </trkpt>
      <trkpt lat="46.71846" lon="6.35426">
        <ele>1339</ele>
        <time>2019-05-21T14:41:40Z</time>
      </trkpt>
      <trkpt lat="46.71841" lon="6.35415">
        <ele>1338</ele>
        <time>2019-05-21T14:41:55Z</time>
      </trkpt>
      <trkpt lat="46.71833" lon="6.35405">
        <ele>1337</ele>
        <time>2019-05-21T14:42:09Z</time>
      </trkpt>
      <trkpt lat="46.71822" lon="6.3538">
        <ele>1332</ele>
        <time>2019-05-21T14:43:09Z</time>
      </trkpt>
      <trkpt lat="46.71819" lon="6.35376">
        <ele>1331</ele>
        <time>2019-05-21T14:43:14Z</time>
      </trkpt>
      <trkpt lat="46.71814" lon="6.35369">
        <ele>1328</ele>
        <time>2019-05-21T14:43:46Z</time>
      </trkpt>
      <trkpt lat="46.71808" lon="6.35364">
        <ele>1329</ele>
        <time>2019-05-21T14:43:53Z</time>
      </trkpt>
      <trkpt lat="46.71805" lon="6.35357">
        <ele>1329</ele>
        <time>2019-05-21T14:43:57Z</time>
      </trkpt>
      <trkpt lat="46.718" lon="6.3535">
        <ele>1328</ele>
        <time>2019-05-21T14:44:02Z</time>
      </trkpt>
      <trkpt lat="46.71797" lon="6.35343">
        <ele>1328</ele>
        <time>2019-05-21T14:44:06Z</time>
      </trkpt>
      <trkpt lat="46.71793" lon="6.35338">
        <ele>1328</ele>
        <time>2019-05-21T14:44:14Z</time>
      </trkpt>
      <trkpt lat="46.71791" lon="6.35331">
        <ele>1328</ele>
        <time>2019-05-21T14:44:20Z</time>
      </trkpt>
      <trkpt lat="46.71789" lon="6.35323">
        <ele>1326</ele>
        <time>2019-05-21T14:44:34Z</time>
      </trkpt>
      <trkpt lat="46.71785" lon="6.35309">
        <ele>1326</ele>
        <time>2019-05-21T14:44:43Z</time>
      </trkpt>
      <trkpt lat="46.71784" lon="6.35296">
        <ele>1325</ele>
        <time>2019-05-21T14:44:51Z</time>
      </trkpt>
      <trkpt lat="46.71785" lon="6.3528">
        <ele>1324</ele>
        <time>2019-05-21T14:45:04Z</time>
      </trkpt>
      <trkpt lat="46.71786" lon="6.35273">
        <ele>1323</ele>
        <time>2019-05-21T14:45:10Z</time>
      </trkpt>
      <trkpt lat="46.71789" lon="6.35253">
        <ele>1322</ele>
        <time>2019-05-21T14:45:24Z</time>
      </trkpt>
      <trkpt lat="46.71791" lon="6.35246">
        <ele>1322</ele>
        <time>2019-05-21T14:45:28Z</time>
      </trkpt>
      <trkpt lat="46.71792" lon="6.35232">
        <ele>1322</ele>
        <time>2019-05-21T14:45:36Z</time>
      </trkpt>
      <trkpt lat="46.71791" lon="6.35224">
        <ele>1322</ele>
        <time>2019-05-21T14:45:40Z</time>
      </trkpt>
      <trkpt lat="46.71791" lon="6.35217">
        <ele>1322</ele>
        <time>2019-05-21T14:45:44Z</time>
      </trkpt>
      <trkpt lat="46.71794" lon="6.3521">
        <ele>1320</ele>
        <time>2019-05-21T14:45:49Z</time>
      </trkpt>
      <trkpt lat="46.71797" lon="6.35203">
        <ele>1320</ele>
        <time>2019-05-21T14:45:53Z</time>
      </trkpt>
      <trkpt lat="46.71799" lon="6.35182">
        <ele>1317</ele>
        <time>2019-05-21T14:46:05Z</time>
      </trkpt>
      <trkpt lat="46.71796" lon="6.35165">
        <ele>1316</ele>
        <time>2019-05-21T14:46:17Z</time>
      </trkpt>
      <trkpt lat="46.71789" lon="6.35157">
        <ele>1315</ele>
        <time>2019-05-21T14:46:25Z</time>
      </trkpt>
      <trkpt lat="46.71783" lon="6.35142">
        <ele>1310</ele>
        <time>2019-05-21T14:46:39Z</time>
      </trkpt>
      <trkpt lat="46.71775" lon="6.35115">
        <ele>1309</ele>
        <time>2019-05-21T14:46:54Z</time>
      </trkpt>
      <trkpt lat="46.71772" lon="6.35103">
        <ele>1307</ele>
        <time>2019-05-21T14:47:04Z</time>
      </trkpt>
      <trkpt lat="46.71766" lon="6.35089">
        <ele>1305</ele>
        <time>2019-05-21T14:47:14Z</time>
      </trkpt>
      <trkpt lat="46.71762" lon="6.35077">
        <ele>1305</ele>
        <time>2019-05-21T14:47:21Z</time>
      </trkpt>
      <trkpt lat="46.71758" lon="6.35064">
        <ele>1304</ele>
        <time>2019-05-21T14:47:28Z</time>
      </trkpt>
      <trkpt lat="46.71751" lon="6.35056">
        <ele>1303</ele>
        <time>2019-05-21T14:47:36Z</time>
      </trkpt>
      <trkpt lat="46.71736" lon="6.35038">
        <ele>1304</ele>
        <time>2019-05-21T14:47:52Z</time>
      </trkpt>
      <trkpt lat="46.71718" lon="6.35016">
        <ele>1302</ele>
        <time>2019-05-21T14:48:14Z</time>
      </trkpt>
      <trkpt lat="46.71712" lon="6.35006">
        <ele>1301</ele>
        <time>2019-05-21T14:48:22Z</time>
      </trkpt>
      <trkpt lat="46.71709" lon="6.34999">
        <ele>1301</ele>
        <time>2019-05-21T14:48:27Z</time>
      </trkpt>
      <trkpt lat="46.71701" lon="6.34979">
        <ele>1301</ele>
        <time>2019-05-21T14:48:40Z</time>
      </trkpt>
      <trkpt lat="46.71696" lon="6.34966">
        <ele>1300</ele>
        <time>2019-05-21T14:48:48Z</time>
      </trkpt>
      <trkpt lat="46.71693" lon="6.34959">
        <ele>1299</ele>
        <time>2019-05-21T14:48:52Z</time>
      </trkpt>
      <trkpt lat="46.71691" lon="6.34952">
        <ele>1298</ele>
        <time>2019-05-21T14:48:57Z</time>
      </trkpt>
      <trkpt lat="46.71686" lon="6.34939">
        <ele>1298</ele>
        <time>2019-05-21T14:49:06Z</time>
      </trkpt>
      <trkpt lat="46.71683" lon="6.34931">
        <ele>1298</ele>
        <time>2019-05-21T14:49:11Z</time>
      </trkpt>
      <trkpt lat="46.71677" lon="6.34911">
        <ele>1298</ele>
        <time>2019-05-21T14:49:22Z</time>
      </trkpt>
      <trkpt lat="46.71673" lon="6.349">
        <ele>1296</ele>
        <time>2019-05-21T14:49:30Z</time>
      </trkpt>
      <trkpt lat="46.71668" lon="6.34887">
        <ele>1296</ele>
        <time>2019-05-21T14:49:40Z</time>
      </trkpt>
      <trkpt lat="46.71663" lon="6.34876">
        <ele>1296</ele>
        <time>2019-05-21T14:49:48Z</time>
      </trkpt>
      <trkpt lat="46.71655" lon="6.3485">
        <ele>1294</ele>
        <time>2019-05-21T14:50:09Z</time>
      </trkpt>
      <trkpt lat="46.71641" lon="6.34829">
        <ele>1294</ele>
        <time>2019-05-21T14:50:25Z</time>
      </trkpt>
      <trkpt lat="46.71634" lon="6.34818">
        <ele>1293</ele>
        <time>2019-05-21T14:50:34Z</time>
      </trkpt>
      <trkpt lat="46.71631" lon="6.34802">
        <ele>1293</ele>
        <time>2019-05-21T14:50:47Z</time>
      </trkpt>
      <trkpt lat="46.71626" lon="6.3479">
        <ele>1292</ele>
        <time>2019-05-21T14:50:55Z</time>
      </trkpt>
      <trkpt lat="46.71624" lon="6.34775">
        <ele>1292</ele>
        <time>2019-05-21T14:51:04Z</time>
      </trkpt>
      <trkpt lat="46.71621" lon="6.34734">
        <ele>1292</ele>
        <time>2019-05-21T14:51:29Z</time>
      </trkpt>
      <trkpt lat="46.71617" lon="6.34721">
        <ele>1292</ele>
        <time>2019-05-21T14:51:37Z</time>
      </trkpt>
      <trkpt lat="46.71612" lon="6.34694">
        <ele>1292</ele>
        <time>2019-05-21T14:51:53Z</time>
      </trkpt>
      <trkpt lat="46.7161" lon="6.34681">
        <ele>1289</ele>
        <time>2019-05-21T14:52:03Z</time>
      </trkpt>
      <trkpt lat="46.71608" lon="6.34667">
        <ele>1289</ele>
        <time>2019-05-21T14:52:11Z</time>
      </trkpt>
      <trkpt lat="46.71604" lon="6.34653">
        <ele>1289</ele>
        <time>2019-05-21T14:52:19Z</time>
      </trkpt>
      <trkpt lat="46.71597" lon="6.34633">
        <ele>1288</ele>
        <time>2019-05-21T14:52:30Z</time>
      </trkpt>
      <trkpt lat="46.71596" lon="6.34626">
        <ele>1288</ele>
        <time>2019-05-21T14:52:35Z</time>
      </trkpt>
      <trkpt lat="46.71595" lon="6.34619">
        <ele>1287</ele>
        <time>2019-05-21T14:52:39Z</time>
      </trkpt>
      <trkpt lat="46.7159" lon="6.34599">
        <ele>1286</ele>
        <time>2019-05-21T14:52:51Z</time>
      </trkpt>
      <trkpt lat="46.71589" lon="6.34584">
        <ele>1286</ele>
        <time>2019-05-21T14:52:59Z</time>
      </trkpt>
      <trkpt lat="46.71586" lon="6.34564">
        <ele>1286</ele>
        <time>2019-05-21T14:53:11Z</time>
      </trkpt>
      <trkpt lat="46.71583" lon="6.34541">
        <ele>1284</ele>
        <time>2019-05-21T14:53:26Z</time>
      </trkpt>
      <trkpt lat="46.7158" lon="6.34534">
        <ele>1283</ele>
        <time>2019-05-21T14:53:30Z</time>
      </trkpt>
      <trkpt lat="46.71576" lon="6.34522">
        <ele>1283</ele>
        <time>2019-05-21T14:53:38Z</time>
      </trkpt>
      <trkpt lat="46.71571" lon="6.34511">
        <ele>1281</ele>
        <time>2019-05-21T14:53:46Z</time>
      </trkpt>
      <trkpt lat="46.71569" lon="6.34503">
        <ele>1279</ele>
        <time>2019-05-21T14:53:53Z</time>
      </trkpt>
      <trkpt lat="46.71569" lon="6.34481">
        <ele>1275</ele>
        <time>2019-05-21T14:54:13Z</time>
      </trkpt>
      <trkpt lat="46.71568" lon="6.34472">
        <ele>1276</ele>
        <time>2019-05-21T14:54:18Z</time>
      </trkpt>
      <trkpt lat="46.71567" lon="6.34459">
        <ele>1276</ele>
        <time>2019-05-21T14:54:25Z</time>
      </trkpt>
      <trkpt lat="46.71567" lon="6.34452">
        <ele>1275</ele>
        <time>2019-05-21T14:54:29Z</time>
      </trkpt>
      <trkpt lat="46.71567" lon="6.34445">
        <ele>1274</ele>
        <time>2019-05-21T14:54:33Z</time>
      </trkpt>
      <trkpt lat="46.71571" lon="6.34429">
        <ele>1273</ele>
        <time>2019-05-21T14:54:44Z</time>
      </trkpt>
      <trkpt lat="46.71573" lon="6.34422">
        <ele>1273</ele>
        <time>2019-05-21T14:54:48Z</time>
      </trkpt>
      <trkpt lat="46.71575" lon="6.34416">
        <ele>1272</ele>
        <time>2019-05-21T14:54:53Z</time>
      </trkpt>
      <trkpt lat="46.7158" lon="6.34407">
        <ele>1272</ele>
        <time>2019-05-21T14:55:00Z</time>
      </trkpt>
      <trkpt lat="46.71584" lon="6.34402">
        <ele>1272</ele>
        <time>2019-05-21T14:55:05Z</time>
      </trkpt>
      <trkpt lat="46.71587" lon="6.34397">
        <ele>1272</ele>
        <time>2019-05-21T14:55:10Z</time>
      </trkpt>
      <trkpt lat="46.7159" lon="6.34391">
        <ele>1272</ele>
        <time>2019-05-21T14:55:14Z</time>
      </trkpt>
      <trkpt lat="46.71594" lon="6.34385">
        <ele>1273</ele>
        <time>2019-05-21T14:55:19Z</time>
      </trkpt>
      <trkpt lat="46.71597" lon="6.34378">
        <ele>1274</ele>
        <time>2019-05-21T14:55:24Z</time>
      </trkpt>
      <trkpt lat="46.71601" lon="6.34373">
        <ele>1274</ele>
        <time>2019-05-21T14:55:29Z</time>
      </trkpt>
      <trkpt lat="46.71605" lon="6.34368">
        <ele>1274</ele>
        <time>2019-05-21T14:55:34Z</time>
      </trkpt>
      <trkpt lat="46.71608" lon="6.34364">
        <ele>1274</ele>
        <time>2019-05-21T14:55:38Z</time>
      </trkpt>
      <trkpt lat="46.71612" lon="6.34359">
        <ele>1274</ele>
        <time>2019-05-21T14:55:43Z</time>
      </trkpt>
      <trkpt lat="46.71616" lon="6.34355">
        <ele>1274</ele>
        <time>2019-05-21T14:55:47Z</time>
      </trkpt>
      <trkpt lat="46.7162" lon="6.34349">
        <ele>1274</ele>
        <time>2019-05-21T14:55:52Z</time>
      </trkpt>
      <trkpt lat="46.71624" lon="6.34345">
        <ele>1274</ele>
        <time>2019-05-21T14:55:57Z</time>
      </trkpt>
      <trkpt lat="46.71636" lon="6.34331">
        <ele>1273</ele>
        <time>2019-05-21T14:56:11Z</time>
      </trkpt>
      <trkpt lat="46.71639" lon="6.34326">
        <ele>1273</ele>
        <time>2019-05-21T14:56:16Z</time>
      </trkpt>
      <trkpt lat="46.71641" lon="6.3432">
        <ele>1273</ele>
        <time>2019-05-21T14:56:21Z</time>
      </trkpt>
      <trkpt lat="46.71644" lon="6.34314">
        <ele>1273</ele>
        <time>2019-05-21T14:56:26Z</time>
      </trkpt>
      <trkpt lat="46.71646" lon="6.34308">
        <ele>1272</ele>
        <time>2019-05-21T14:56:31Z</time>
      </trkpt>
      <trkpt lat="46.7165" lon="6.34303">
        <ele>1272</ele>
        <time>2019-05-21T14:56:35Z</time>
      </trkpt>
      <trkpt lat="46.71662" lon="6.34303">
        <ele>1271</ele>
        <time>2019-05-21T14:56:44Z</time>
      </trkpt>
      <trkpt lat="46.71667" lon="6.34301">
        <ele>1271</ele>
        <time>2019-05-21T14:56:49Z</time>
      </trkpt>
      <trkpt lat="46.71672" lon="6.34301">
        <ele>1271</ele>
        <time>2019-05-21T14:56:53Z</time>
      </trkpt>
      <trkpt lat="46.71683" lon="6.34314">
        <ele>1269</ele>
        <time>2019-05-21T14:57:06Z</time>
      </trkpt>
      <trkpt lat="46.71692" lon="6.34315">
        <ele>1269</ele>
        <time>2019-05-21T14:57:13Z</time>
      </trkpt>
      <trkpt lat="46.71711" lon="6.34309">
        <ele>1268</ele>
        <time>2019-05-21T14:57:33Z</time>
      </trkpt>
      <trkpt lat="46.7172" lon="6.34312">
        <ele>1269</ele>
        <time>2019-05-21T14:57:42Z</time>
      </trkpt>
      <trkpt lat="46.7173" lon="6.34317">
        <ele>1269</ele>
        <time>2019-05-21T14:57:47Z</time>
      </trkpt>
      <trkpt lat="46.7174" lon="6.34312">
        <ele>1268</ele>
        <time>2019-05-21T14:57:57Z</time>
      </trkpt>
      <trkpt lat="46.71764" lon="6.34315">
        <ele>1270</ele>
        <time>2019-05-21T14:58:30Z</time>
      </trkpt>
      <trkpt lat="46.71772" lon="6.34322">
        <ele>1268</ele>
        <time>2019-05-21T14:58:48Z</time>
      </trkpt>
      <trkpt lat="46.7179" lon="6.34322">
        <ele>1264</ele>
        <time>2019-05-21T15:01:02Z</time>
      </trkpt>
      <trkpt lat="46.71799" lon="6.34323">
        <ele>1265</ele>
        <time>2019-05-21T15:01:10Z</time>
      </trkpt>
      <trkpt lat="46.71816" lon="6.34331">
        <ele>1269</ele>
        <time>2019-05-21T15:01:25Z</time>
      </trkpt>
      <trkpt lat="46.71829" lon="6.34343">
        <ele>1269</ele>
        <time>2019-05-21T15:01:42Z</time>
      </trkpt>
      <trkpt lat="46.71842" lon="6.34354">
        <ele>1271</ele>
        <time>2019-05-21T15:01:59Z</time>
      </trkpt>
      <trkpt lat="46.7186" lon="6.34363">
        <ele>1271</ele>
        <time>2019-05-21T15:02:15Z</time>
      </trkpt>
      <trkpt lat="46.71874" lon="6.34369">
        <ele>1271</ele>
        <time>2019-05-21T15:02:26Z</time>
      </trkpt>
      <trkpt lat="46.71884" lon="6.34369">
        <ele>1271</ele>
        <time>2019-05-21T15:02:34Z</time>
      </trkpt>
      <trkpt lat="46.71889" lon="6.3437">
        <ele>1271</ele>
        <time>2019-05-21T15:02:39Z</time>
      </trkpt>
      <trkpt lat="46.71897" lon="6.34378">
        <ele>1269</ele>
        <time>2019-05-21T15:02:48Z</time>
      </trkpt>
      <trkpt lat="46.71905" lon="6.34385">
        <ele>1269</ele>
        <time>2019-05-21T15:02:59Z</time>
      </trkpt>
      <trkpt lat="46.7191" lon="6.34387">
        <ele>1269</ele>
        <time>2019-05-21T15:03:04Z</time>
      </trkpt>
      <trkpt lat="46.71927" lon="6.34393">
        <ele>1269</ele>
        <time>2019-05-21T15:03:20Z</time>
      </trkpt>
      <trkpt lat="46.71932" lon="6.34394">
        <ele>1268</ele>
        <time>2019-05-21T15:03:24Z</time>
      </trkpt>
      <trkpt lat="46.71937" lon="6.34395">
        <ele>1267</ele>
        <time>2019-05-21T15:03:29Z</time>
      </trkpt>
      <trkpt lat="46.71942" lon="6.34393">
        <ele>1268</ele>
        <time>2019-05-21T15:03:34Z</time>
      </trkpt>
      <trkpt lat="46.71947" lon="6.34394">
        <ele>1269</ele>
        <time>2019-05-21T15:03:39Z</time>
      </trkpt>
      <trkpt lat="46.71962" lon="6.34396">
        <ele>1272</ele>
        <time>2019-05-21T15:03:53Z</time>
      </trkpt>
      <trkpt lat="46.71977" lon="6.34401">
        <ele>1274</ele>
        <time>2019-05-21T15:04:15Z</time>
      </trkpt>
      <trkpt lat="46.71983" lon="6.34411">
        <ele>1275</ele>
        <time>2019-05-21T15:04:24Z</time>
      </trkpt>
      <trkpt lat="46.7199" lon="6.34418">
        <ele>1277</ele>
        <time>2019-05-21T15:04:33Z</time>
      </trkpt>
      <trkpt lat="46.71995" lon="6.34426">
        <ele>1279</ele>
        <time>2019-05-21T15:04:54Z</time>
      </trkpt>
      <trkpt lat="46.71998" lon="6.34432">
        <ele>1280</ele>
        <time>2019-05-21T15:04:59Z</time>
      </trkpt>
      <trkpt lat="46.72001" lon="6.34437">
        <ele>1281</ele>
        <time>2019-05-21T15:05:04Z</time>
      </trkpt>
      <trkpt lat="46.72005" lon="6.34442">
        <ele>1282</ele>
        <time>2019-05-21T15:05:08Z</time>
      </trkpt>
      <trkpt lat="46.72008" lon="6.34446">
        <ele>1282</ele>
        <time>2019-05-21T15:05:13Z</time>
      </trkpt>
      <trkpt lat="46.72011" lon="6.34453">
        <ele>1282</ele>
        <time>2019-05-21T15:05:18Z</time>
      </trkpt>
      <trkpt lat="46.7202" lon="6.34469">
        <ele>1285</ele>
        <time>2019-05-21T15:05:33Z</time>
      </trkpt>
      <trkpt lat="46.72024" lon="6.34475">
        <ele>1285</ele>
        <time>2019-05-21T15:05:38Z</time>
      </trkpt>
      <trkpt lat="46.72027" lon="6.3448">
        <ele>1286</ele>
        <time>2019-05-21T15:05:43Z</time>
      </trkpt>
      <trkpt lat="46.72031" lon="6.34487">
        <ele>1288</ele>
        <time>2019-05-21T15:05:51Z</time>
      </trkpt>
      <trkpt lat="46.72033" lon="6.34493">
        <ele>1288</ele>
        <time>2019-05-21T15:05:57Z</time>
      </trkpt>
      <trkpt lat="46.72053" lon="6.34518">
        <ele>1291</ele>
        <time>2019-05-21T15:06:24Z</time>
      </trkpt>
      <trkpt lat="46.72062" lon="6.34534">
        <ele>1293</ele>
        <time>2019-05-21T15:06:40Z</time>
      </trkpt>
      <trkpt lat="46.72068" lon="6.34548">
        <ele>1294</ele>
        <time>2019-05-21T15:06:52Z</time>
      </trkpt>
      <trkpt lat="46.72075" lon="6.3456">
        <ele>1295</ele>
        <time>2019-05-21T15:07:04Z</time>
      </trkpt>
      <trkpt lat="46.7208" lon="6.34565">
        <ele>1295</ele>
        <time>2019-05-21T15:07:12Z</time>
      </trkpt>
      <trkpt lat="46.72085" lon="6.34569">
        <ele>1296</ele>
        <time>2019-05-21T15:07:18Z</time>
      </trkpt>
      <trkpt lat="46.7209" lon="6.34575">
        <ele>1296</ele>
        <time>2019-05-21T15:07:25Z</time>
      </trkpt>
      <trkpt lat="46.72096" lon="6.34581">
        <ele>1297</ele>
        <time>2019-05-21T15:07:34Z</time>
      </trkpt>
      <trkpt lat="46.72101" lon="6.34583">
        <ele>1297</ele>
        <time>2019-05-21T15:07:39Z</time>
      </trkpt>
      <trkpt lat="46.72105" lon="6.34587">
        <ele>1298</ele>
        <time>2019-05-21T15:07:44Z</time>
      </trkpt>
      <trkpt lat="46.72112" lon="6.34593">
        <ele>1297</ele>
        <time>2019-05-21T15:07:55Z</time>
      </trkpt>
      <trkpt lat="46.72126" lon="6.34593">
        <ele>1300</ele>
        <time>2019-05-21T15:08:17Z</time>
      </trkpt>
      <trkpt lat="46.72131" lon="6.34592">
        <ele>1299</ele>
        <time>2019-05-21T15:08:22Z</time>
      </trkpt>
      <trkpt lat="46.72167" lon="6.3459">
        <ele>1300</ele>
        <time>2019-05-21T15:09:04Z</time>
      </trkpt>
      <trkpt lat="46.72179" lon="6.34588">
        <ele>1300</ele>
        <time>2019-05-21T15:09:22Z</time>
      </trkpt>
      <trkpt lat="46.72184" lon="6.34588">
        <ele>1301</ele>
        <time>2019-05-21T15:09:28Z</time>
      </trkpt>
      <trkpt lat="46.7219" lon="6.3459">
        <ele>1301</ele>
        <time>2019-05-21T15:09:40Z</time>
      </trkpt>
      <trkpt lat="46.72199" lon="6.3458">
        <ele>1301</ele>
        <time>2019-05-21T15:12:04Z</time>
      </trkpt>
      <trkpt lat="46.72207" lon="6.34576">
        <ele>1301</ele>
        <time>2019-05-21T15:12:28Z</time>
      </trkpt>
      <trkpt lat="46.72221" lon="6.34572">
        <ele>1301</ele>
        <time>2019-05-21T15:13:22Z</time>
      </trkpt>
      <trkpt lat="46.72249" lon="6.34567">
        <ele>1301</ele>
        <time>2019-05-21T15:13:51Z</time>
      </trkpt>
      <trkpt lat="46.72288" lon="6.34559">
        <ele>1305</ele>
        <time>2019-05-21T15:14:28Z</time>
      </trkpt>
      <trkpt lat="46.72311" lon="6.34549">
        <ele>1307</ele>
        <time>2019-05-21T15:14:52Z</time>
      </trkpt>
      <trkpt lat="46.72341" lon="6.34545">
        <ele>1309</ele>
        <time>2019-05-21T15:15:19Z</time>
      </trkpt>
      <trkpt lat="46.72349" lon="6.34543">
        <ele>1309</ele>
        <time>2019-05-21T15:15:28Z</time>
      </trkpt>
      <trkpt lat="46.72361" lon="6.34539">
        <ele>1312</ele>
        <time>2019-05-21T15:15:43Z</time>
      </trkpt>
      <trkpt lat="46.72366" lon="6.34537">
        <ele>1311</ele>
        <time>2019-05-21T15:15:48Z</time>
      </trkpt>
      <trkpt lat="46.72372" lon="6.34533">
        <ele>1313</ele>
        <time>2019-05-21T15:15:57Z</time>
      </trkpt>
      <trkpt lat="46.72377" lon="6.3453">
        <ele>1313</ele>
        <time>2019-05-21T15:16:03Z</time>
      </trkpt>
      <trkpt lat="46.72383" lon="6.34528">
        <ele>1314</ele>
        <time>2019-05-21T15:16:08Z</time>
      </trkpt>
      <trkpt lat="46.72393" lon="6.34524">
        <ele>1315</ele>
        <time>2019-05-21T15:16:16Z</time>
      </trkpt>
      <trkpt lat="46.72397" lon="6.34521">
        <ele>1315</ele>
        <time>2019-05-21T15:16:21Z</time>
      </trkpt>
      <trkpt lat="46.72401" lon="6.34517">
        <ele>1316</ele>
        <time>2019-05-21T15:16:26Z</time>
      </trkpt>
      <trkpt lat="46.72406" lon="6.34515">
        <ele>1316</ele>
        <time>2019-05-21T15:16:36Z</time>
      </trkpt>
      <trkpt lat="46.72415" lon="6.34509">
        <ele>1317</ele>
        <time>2019-05-21T15:16:54Z</time>
      </trkpt>
      <trkpt lat="46.72419" lon="6.34508">
        <ele>1318</ele>
        <time>2019-05-21T15:16:59Z</time>
      </trkpt>
      <trkpt lat="46.72424" lon="6.34508">
        <ele>1318</ele>
        <time>2019-05-21T15:17:04Z</time>
      </trkpt>
      <trkpt lat="46.72429" lon="6.34508">
        <ele>1318</ele>
        <time>2019-05-21T15:17:09Z</time>
      </trkpt>
      <trkpt lat="46.72435" lon="6.34508">
        <ele>1318</ele>
        <time>2019-05-21T15:17:17Z</time>
      </trkpt>
      <trkpt lat="46.72445" lon="6.34507">
        <ele>1319</ele>
        <time>2019-05-21T15:17:25Z</time>
      </trkpt>
      <trkpt lat="46.72454" lon="6.34503">
        <ele>1320</ele>
        <time>2019-05-21T15:17:34Z</time>
      </trkpt>
      <trkpt lat="46.72459" lon="6.34497">
        <ele>1321</ele>
        <time>2019-05-21T15:17:49Z</time>
      </trkpt>
      <trkpt lat="46.72471" lon="6.34489">
        <ele>1322</ele>
        <time>2019-05-21T15:18:04Z</time>
      </trkpt>
      <trkpt lat="46.72475" lon="6.34485">
        <ele>1323</ele>
        <time>2019-05-21T15:18:09Z</time>
      </trkpt>
      <trkpt lat="46.7248" lon="6.34483">
        <ele>1323</ele>
        <time>2019-05-21T15:18:13Z</time>
      </trkpt>
      <trkpt lat="46.72515" lon="6.34491">
        <ele>1327</ele>
        <time>2019-05-21T15:18:46Z</time>
      </trkpt>
      <trkpt lat="46.72519" lon="6.34494">
        <ele>1328</ele>
        <time>2019-05-21T15:18:51Z</time>
      </trkpt>
      <trkpt lat="46.72524" lon="6.34494">
        <ele>1327</ele>
        <time>2019-05-21T15:18:56Z</time>
      </trkpt>
      <trkpt lat="46.72529" lon="6.34496">
        <ele>1328</ele>
        <time>2019-05-21T15:19:01Z</time>
      </trkpt>
      <trkpt lat="46.72545" lon="6.34495">
        <ele>1331</ele>
        <time>2019-05-21T15:19:18Z</time>
      </trkpt>
      <trkpt lat="46.7255" lon="6.34495">
        <ele>1331</ele>
        <time>2019-05-21T15:19:23Z</time>
      </trkpt>
      <trkpt lat="46.72565" lon="6.345">
        <ele>1331</ele>
        <time>2019-05-21T15:19:37Z</time>
      </trkpt>
      <trkpt lat="46.7257" lon="6.345">
        <ele>1332</ele>
        <time>2019-05-21T15:19:42Z</time>
      </trkpt>
      <trkpt lat="46.72602" lon="6.34504">
        <ele>1334</ele>
        <time>2019-05-21T15:20:15Z</time>
      </trkpt>
      <trkpt lat="46.72607" lon="6.34506">
        <ele>1335</ele>
        <time>2019-05-21T15:20:27Z</time>
      </trkpt>
      <trkpt lat="46.72612" lon="6.34508">
        <ele>1336</ele>
        <time>2019-05-21T15:20:31Z</time>
      </trkpt>
      <trkpt lat="46.72617" lon="6.34508">
        <ele>1336</ele>
        <time>2019-05-21T15:20:36Z</time>
      </trkpt>
      <trkpt lat="46.72633" lon="6.34508">
        <ele>1336</ele>
        <time>2019-05-21T15:20:49Z</time>
      </trkpt>
      <trkpt lat="46.72643" lon="6.34509">
        <ele>1337</ele>
        <time>2019-05-21T15:20:57Z</time>
      </trkpt>
      <trkpt lat="46.72648" lon="6.34509">
        <ele>1337</ele>
        <time>2019-05-21T15:21:01Z</time>
      </trkpt>
      <trkpt lat="46.72653" lon="6.34509">
        <ele>1337</ele>
        <time>2019-05-21T15:21:05Z</time>
      </trkpt>
      <trkpt lat="46.72659" lon="6.3451">
        <ele>1337</ele>
        <time>2019-05-21T15:21:10Z</time>
      </trkpt>
      <trkpt lat="46.72674" lon="6.34512">
        <ele>1336</ele>
        <time>2019-05-21T15:21:27Z</time>
      </trkpt>
      <trkpt lat="46.7269" lon="6.34508">
        <ele>1334</ele>
        <time>2019-05-21T15:21:40Z</time>
      </trkpt>
      <trkpt lat="46.727" lon="6.34503">
        <ele>1335</ele>
        <time>2019-05-21T15:21:48Z</time>
      </trkpt>
      <trkpt lat="46.7271" lon="6.345">
        <ele>1333</ele>
        <time>2019-05-21T15:21:58Z</time>
      </trkpt>
      <trkpt lat="46.72732" lon="6.34472">
        <ele>1332</ele>
        <time>2019-05-21T15:22:22Z</time>
      </trkpt>
      <trkpt lat="46.72737" lon="6.34461">
        <ele>1332</ele>
        <time>2019-05-21T15:22:30Z</time>
      </trkpt>
      <trkpt lat="46.72744" lon="6.34453">
        <ele>1333</ele>
        <time>2019-05-21T15:22:38Z</time>
      </trkpt>
      <trkpt lat="46.72751" lon="6.34443">
        <ele>1333</ele>
        <time>2019-05-21T15:22:46Z</time>
      </trkpt>
      <trkpt lat="46.72768" lon="6.34427">
        <ele>1335</ele>
        <time>2019-05-21T15:23:02Z</time>
      </trkpt>
      <trkpt lat="46.72775" lon="6.34419">
        <ele>1335</ele>
        <time>2019-05-21T15:23:11Z</time>
      </trkpt>
      <trkpt lat="46.7278" lon="6.34425">
        <ele>1331</ele>
        <time>2019-05-21T15:23:38Z</time>
      </trkpt>
      <trkpt lat="46.72778" lon="6.34419">
        <ele>1333</ele>
        <time>2019-05-21T15:24:35Z</time>
      </trkpt>
      <trkpt lat="46.72778" lon="6.3441">
        <ele>1334</ele>
        <time>2019-05-21T15:24:48Z</time>
      </trkpt>
      <trkpt lat="46.72782" lon="6.34407">
        <ele>1333</ele>
        <time>2019-05-21T15:25:30Z</time>
      </trkpt>
      <trkpt lat="46.72782" lon="6.34399">
        <ele>1333</ele>
        <time>2019-05-21T15:25:36Z</time>
      </trkpt>
      <trkpt lat="46.72782" lon="6.34392">
        <ele>1333</ele>
        <time>2019-05-21T15:25:40Z</time>
      </trkpt>
      <trkpt lat="46.72787" lon="6.3439">
        <ele>1332</ele>
        <time>2019-05-21T15:25:45Z</time>
      </trkpt>
      <trkpt lat="46.72795" lon="6.3438">
        <ele>1332</ele>
        <time>2019-05-21T15:25:56Z</time>
      </trkpt>
      <trkpt lat="46.72807" lon="6.34368">
        <ele>1329</ele>
        <time>2019-05-21T15:26:10Z</time>
      </trkpt>
      <trkpt lat="46.72826" lon="6.34342">
        <ele>1331</ele>
        <time>2019-05-21T15:26:31Z</time>
      </trkpt>
      <trkpt lat="46.72832" lon="6.34332">
        <ele>1330</ele>
        <time>2019-05-21T15:26:39Z</time>
      </trkpt>
      <trkpt lat="46.72837" lon="6.34313">
        <ele>1328</ele>
        <time>2019-05-21T15:26:52Z</time>
      </trkpt>
      <trkpt lat="46.72842" lon="6.34301">
        <ele>1328</ele>
        <time>2019-05-21T15:27:00Z</time>
      </trkpt>
      <trkpt lat="46.72849" lon="6.34291">
        <ele>1327</ele>
        <time>2019-05-21T15:27:07Z</time>
      </trkpt>
      <trkpt lat="46.7286" lon="6.34268">
        <ele>1325</ele>
        <time>2019-05-21T15:27:23Z</time>
      </trkpt>
      <trkpt lat="46.72868" lon="6.34259">
        <ele>1325</ele>
        <time>2019-05-21T15:27:30Z</time>
      </trkpt>
      <trkpt lat="46.72893" lon="6.34237">
        <ele>1322</ele>
        <time>2019-05-21T15:27:54Z</time>
      </trkpt>
      <trkpt lat="46.7293" lon="6.34224">
        <ele>1318</ele>
        <time>2019-05-21T15:28:25Z</time>
      </trkpt>
      <trkpt lat="46.7294" lon="6.3422">
        <ele>1318</ele>
        <time>2019-05-21T15:28:33Z</time>
      </trkpt>
      <trkpt lat="46.72954" lon="6.34211">
        <ele>1316</ele>
        <time>2019-05-21T15:28:46Z</time>
      </trkpt>
      <trkpt lat="46.72959" lon="6.3421">
        <ele>1316</ele>
        <time>2019-05-21T15:28:51Z</time>
      </trkpt>
      <trkpt lat="46.72964" lon="6.34207">
        <ele>1315</ele>
        <time>2019-05-21T15:28:56Z</time>
      </trkpt>
      <trkpt lat="46.72969" lon="6.34205">
        <ele>1316</ele>
        <time>2019-05-21T15:29:00Z</time>
      </trkpt>
      <trkpt lat="46.72973" lon="6.34202">
        <ele>1315</ele>
        <time>2019-05-21T15:29:04Z</time>
      </trkpt>
      <trkpt lat="46.72982" lon="6.34196">
        <ele>1314</ele>
        <time>2019-05-21T15:29:13Z</time>
      </trkpt>
      <trkpt lat="46.72981" lon="6.34184">
        <ele>1313</ele>
        <time>2019-05-21T15:29:23Z</time>
      </trkpt>
      <trkpt lat="46.72979" lon="6.34176">
        <ele>1313</ele>
        <time>2019-05-21T15:29:27Z</time>
      </trkpt>
      <trkpt lat="46.72978" lon="6.34169">
        <ele>1312</ele>
        <time>2019-05-21T15:29:31Z</time>
      </trkpt>
      <trkpt lat="46.72972" lon="6.34139">
        <ele>1313</ele>
        <time>2019-05-21T15:29:48Z</time>
      </trkpt>
      <trkpt lat="46.72973" lon="6.34131">
        <ele>1312</ele>
        <time>2019-05-21T15:29:56Z</time>
      </trkpt>
      <trkpt lat="46.72976" lon="6.34124">
        <ele>1311</ele>
        <time>2019-05-21T15:30:01Z</time>
      </trkpt>
      <trkpt lat="46.72978" lon="6.34118">
        <ele>1310</ele>
        <time>2019-05-21T15:30:06Z</time>
      </trkpt>
      <trkpt lat="46.72977" lon="6.34111">
        <ele>1311</ele>
        <time>2019-05-21T15:30:10Z</time>
      </trkpt>
      <trkpt lat="46.72977" lon="6.34105">
        <ele>1310</ele>
        <time>2019-05-21T15:30:14Z</time>
      </trkpt>
      <trkpt lat="46.72979" lon="6.34097">
        <ele>1309</ele>
        <time>2019-05-21T15:30:21Z</time>
      </trkpt>
      <trkpt lat="46.72979" lon="6.3409">
        <ele>1309</ele>
        <time>2019-05-21T15:30:25Z</time>
      </trkpt>
      <trkpt lat="46.72977" lon="6.3406">
        <ele>1308</ele>
        <time>2019-05-21T15:30:42Z</time>
      </trkpt>
      <trkpt lat="46.72977" lon="6.34052">
        <ele>1308</ele>
        <time>2019-05-21T15:30:46Z</time>
      </trkpt>
      <trkpt lat="46.72978" lon="6.34046">
        <ele>1309</ele>
        <time>2019-05-21T15:30:51Z</time>
      </trkpt>
      <trkpt lat="46.7298" lon="6.34033">
        <ele>1307</ele>
        <time>2019-05-21T15:31:01Z</time>
      </trkpt>
      <trkpt lat="46.72984" lon="6.34024">
        <ele>1307</ele>
        <time>2019-05-21T15:31:09Z</time>
      </trkpt>
      <trkpt lat="46.72986" lon="6.34018">
        <ele>1306</ele>
        <time>2019-05-21T15:31:14Z</time>
      </trkpt>
      <trkpt lat="46.72989" lon="6.3401">
        <ele>1305</ele>
        <time>2019-05-21T15:31:21Z</time>
      </trkpt>
      <trkpt lat="46.72993" lon="6.33997">
        <ele>1304</ele>
        <time>2019-05-21T15:31:30Z</time>
      </trkpt>
      <trkpt lat="46.72997" lon="6.33981">
        <ele>1303</ele>
        <time>2019-05-21T15:31:42Z</time>
      </trkpt>
      <trkpt lat="46.72998" lon="6.33975">
        <ele>1303</ele>
        <time>2019-05-21T15:31:47Z</time>
      </trkpt>
      <trkpt lat="46.72993" lon="6.33964">
        <ele>1302</ele>
        <time>2019-05-21T15:31:57Z</time>
      </trkpt>
      <trkpt lat="46.72993" lon="6.33954">
        <ele>1301</ele>
        <time>2019-05-21T15:32:06Z</time>
      </trkpt>
      <trkpt lat="46.72998" lon="6.33917">
        <ele>1295</ele>
        <time>2019-05-21T15:32:31Z</time>
      </trkpt>
      <trkpt lat="46.73001" lon="6.3391">
        <ele>1295</ele>
        <time>2019-05-21T15:32:38Z</time>
      </trkpt>
      <trkpt lat="46.73006" lon="6.3389">
        <ele>1294</ele>
        <time>2019-05-21T15:32:55Z</time>
      </trkpt>
      <trkpt lat="46.73005" lon="6.33875">
        <ele>1292</ele>
        <time>2019-05-21T15:33:04Z</time>
      </trkpt>
      <trkpt lat="46.73004" lon="6.33868">
        <ele>1292</ele>
        <time>2019-05-21T15:33:10Z</time>
      </trkpt>
      <trkpt lat="46.73004" lon="6.33858">
        <ele>1292</ele>
        <time>2019-05-21T15:33:16Z</time>
      </trkpt>
      <trkpt lat="46.73004" lon="6.33849">
        <ele>1291</ele>
        <time>2019-05-21T15:33:23Z</time>
      </trkpt>
      <trkpt lat="46.72999" lon="6.33817">
        <ele>1286</ele>
        <time>2019-05-21T15:33:45Z</time>
      </trkpt>
      <trkpt lat="46.72997" lon="6.33811">
        <ele>1285</ele>
        <time>2019-05-21T15:33:49Z</time>
      </trkpt>
      <trkpt lat="46.72985" lon="6.33782">
        <ele>1282</ele>
        <time>2019-05-21T15:34:12Z</time>
      </trkpt>
      <trkpt lat="46.72983" lon="6.33774">
        <ele>1281</ele>
        <time>2019-05-21T15:34:17Z</time>
      </trkpt>
      <trkpt lat="46.72974" lon="6.33744">
        <ele>1279</ele>
        <time>2019-05-21T15:34:36Z</time>
      </trkpt>
      <trkpt lat="46.72973" lon="6.33737">
        <ele>1279</ele>
        <time>2019-05-21T15:34:40Z</time>
      </trkpt>
      <trkpt lat="46.72973" lon="6.3373">
        <ele>1278</ele>
        <time>2019-05-21T15:34:51Z</time>
      </trkpt>
      <trkpt lat="46.72971" lon="6.33722">
        <ele>1278</ele>
        <time>2019-05-21T15:35:00Z</time>
      </trkpt>
      <trkpt lat="46.72966" lon="6.33707">
        <ele>1278</ele>
        <time>2019-05-21T15:35:08Z</time>
      </trkpt>
      <trkpt lat="46.72961" lon="6.33694">
        <ele>1276</ele>
        <time>2019-05-21T15:35:15Z</time>
      </trkpt>
      <trkpt lat="46.72958" lon="6.33686">
        <ele>1276</ele>
        <time>2019-05-21T15:35:20Z</time>
      </trkpt>
      <trkpt lat="46.72957" lon="6.33679">
        <ele>1275</ele>
        <time>2019-05-21T15:35:24Z</time>
      </trkpt>
      <trkpt lat="46.72952" lon="6.33666">
        <ele>1275</ele>
        <time>2019-05-21T15:35:32Z</time>
      </trkpt>
      <trkpt lat="46.7295" lon="6.33659">
        <ele>1275</ele>
        <time>2019-05-21T15:35:37Z</time>
      </trkpt>
      <trkpt lat="46.72946" lon="6.33639">
        <ele>1274</ele>
        <time>2019-05-21T15:35:50Z</time>
      </trkpt>
      <trkpt lat="46.72944" lon="6.33633">
        <ele>1274</ele>
        <time>2019-05-21T15:35:53Z</time>
      </trkpt>
      <trkpt lat="46.7294" lon="6.33619">
        <ele>1273</ele>
        <time>2019-05-21T15:36:01Z</time>
      </trkpt>
      <trkpt lat="46.72939" lon="6.33608">
        <ele>1272</ele>
        <time>2019-05-21T15:36:09Z</time>
      </trkpt>
      <trkpt lat="46.72939" lon="6.33599">
        <ele>1272</ele>
        <time>2019-05-21T15:36:13Z</time>
      </trkpt>
      <trkpt lat="46.72937" lon="6.33591">
        <ele>1271</ele>
        <time>2019-05-21T15:36:17Z</time>
      </trkpt>
      <trkpt lat="46.72933" lon="6.33571">
        <ele>1272</ele>
        <time>2019-05-21T15:36:30Z</time>
      </trkpt>
      <trkpt lat="46.72923" lon="6.33529">
        <ele>1270</ele>
        <time>2019-05-21T15:36:52Z</time>
      </trkpt>
      <trkpt lat="46.7292" lon="6.33518">
        <ele>1269</ele>
        <time>2019-05-21T15:37:00Z</time>
      </trkpt>
      <trkpt lat="46.72919" lon="6.33511">
        <ele>1269</ele>
        <time>2019-05-21T15:37:04Z</time>
      </trkpt>
      <trkpt lat="46.72916" lon="6.33498">
        <ele>1268</ele>
        <time>2019-05-21T15:37:12Z</time>
      </trkpt>
      <trkpt lat="46.72911" lon="6.33478">
        <ele>1269</ele>
        <time>2019-05-21T15:37:24Z</time>
      </trkpt>
      <trkpt lat="46.72909" lon="6.33471">
        <ele>1268</ele>
        <time>2019-05-21T15:37:28Z</time>
      </trkpt>
      <trkpt lat="46.72908" lon="6.33464">
        <ele>1268</ele>
        <time>2019-05-21T15:37:32Z</time>
      </trkpt>
      <trkpt lat="46.72904" lon="6.33445">
        <ele>1267</ele>
        <time>2019-05-21T15:37:44Z</time>
      </trkpt>
      <trkpt lat="46.72903" lon="6.33422">
        <ele>1269</ele>
        <time>2019-05-21T15:37:58Z</time>
      </trkpt>
      <trkpt lat="46.72903" lon="6.33399">
        <ele>1269</ele>
        <time>2019-05-21T15:38:10Z</time>
      </trkpt>
      <trkpt lat="46.72902" lon="6.33392">
        <ele>1269</ele>
        <time>2019-05-21T15:38:14Z</time>
      </trkpt>
      <trkpt lat="46.72901" lon="6.33377">
        <ele>1269</ele>
        <time>2019-05-21T15:38:22Z</time>
      </trkpt>
      <trkpt lat="46.729" lon="6.33371">
        <ele>1270</ele>
        <time>2019-05-21T15:38:26Z</time>
      </trkpt>
      <trkpt lat="46.72899" lon="6.33363">
        <ele>1270</ele>
        <time>2019-05-21T15:38:31Z</time>
      </trkpt>
      <trkpt lat="46.729" lon="6.33356">
        <ele>1269</ele>
        <time>2019-05-21T15:38:36Z</time>
      </trkpt>
      <trkpt lat="46.729" lon="6.33345">
        <ele>1269</ele>
        <time>2019-05-21T15:38:47Z</time>
      </trkpt>
      <trkpt lat="46.72902" lon="6.33335">
        <ele>1271</ele>
        <time>2019-05-21T15:38:59Z</time>
      </trkpt>
      <trkpt lat="46.72903" lon="6.33328">
        <ele>1271</ele>
        <time>2019-05-21T15:39:04Z</time>
      </trkpt>
      <trkpt lat="46.72903" lon="6.33311">
        <ele>1271</ele>
        <time>2019-05-21T15:39:16Z</time>
      </trkpt>
      <trkpt lat="46.72898" lon="6.33298">
        <ele>1273</ele>
        <time>2019-05-21T15:39:30Z</time>
      </trkpt>
      <trkpt lat="46.72903" lon="6.33286">
        <ele>1272</ele>
        <time>2019-05-21T15:39:39Z</time>
      </trkpt>
      <trkpt lat="46.72898" lon="6.33274">
        <ele>1272</ele>
        <time>2019-05-21T15:39:50Z</time>
      </trkpt>
      <trkpt lat="46.72894" lon="6.33259">
        <ele>1273</ele>
        <time>2019-05-21T15:40:07Z</time>
      </trkpt>
      <trkpt lat="46.72891" lon="6.33218">
        <ele>1271</ele>
        <time>2019-05-21T15:40:43Z</time>
      </trkpt>
      <trkpt lat="46.7289" lon="6.33203">
        <ele>1271</ele>
        <time>2019-05-21T15:40:57Z</time>
      </trkpt>
      <trkpt lat="46.72878" lon="6.33186">
        <ele>1269</ele>
        <time>2019-05-21T15:41:14Z</time>
      </trkpt>
      <trkpt lat="46.72878" lon="6.33172">
        <ele>1268</ele>
        <time>2019-05-21T15:41:24Z</time>
      </trkpt>
      <trkpt lat="46.72874" lon="6.33171">
        <ele>1262</ele>
        <time>2019-05-21T15:43:16Z</time>
      </trkpt>
      <trkpt lat="46.7288" lon="6.33163">
        <ele>1256</ele>
        <time>2019-05-21T15:43:40Z</time>
      </trkpt>
      <trkpt lat="46.72885" lon="6.33159">
        <ele>1258</ele>
        <time>2019-05-21T15:43:47Z</time>
      </trkpt>
      <trkpt lat="46.72882" lon="6.33148">
        <ele>1258</ele>
        <time>2019-05-21T15:44:01Z</time>
      </trkpt>
      <trkpt lat="46.72882" lon="6.33141">
        <ele>1259</ele>
        <time>2019-05-21T15:44:13Z</time>
      </trkpt>
      <trkpt lat="46.72883" lon="6.33126">
        <ele>1260</ele>
        <time>2019-05-21T15:44:23Z</time>
      </trkpt>
      <trkpt lat="46.72879" lon="6.33113">
        <ele>1258</ele>
        <time>2019-05-21T15:44:37Z</time>
      </trkpt>
      <trkpt lat="46.7287" lon="6.33103">
        <ele>1257</ele>
        <time>2019-05-21T15:44:55Z</time>
      </trkpt>
      <trkpt lat="46.72867" lon="6.33089">
        <ele>1255</ele>
        <time>2019-05-21T15:45:13Z</time>
      </trkpt>
      <trkpt lat="46.7287" lon="6.3306">
        <ele>1253</ele>
        <time>2019-05-21T15:45:33Z</time>
      </trkpt>
      <trkpt lat="46.72869" lon="6.33046">
        <ele>1253</ele>
        <time>2019-05-21T15:45:41Z</time>
      </trkpt>
      <trkpt lat="46.72866" lon="6.33033">
        <ele>1252</ele>
        <time>2019-05-21T15:45:50Z</time>
      </trkpt>
      <trkpt lat="46.72871" lon="6.3302">
        <ele>1251</ele>
        <time>2019-05-21T15:45:59Z</time>
      </trkpt>
      <trkpt lat="46.72874" lon="6.33008">
        <ele>1250</ele>
        <time>2019-05-21T15:46:06Z</time>
      </trkpt>
      <trkpt lat="46.72874" lon="6.3298">
        <ele>1249</ele>
        <time>2019-05-21T15:46:22Z</time>
      </trkpt>
      <trkpt lat="46.72876" lon="6.32967">
        <ele>1247</ele>
        <time>2019-05-21T15:46:32Z</time>
      </trkpt>
      <trkpt lat="46.72871" lon="6.3294">
        <ele>1246</ele>
        <time>2019-05-21T15:46:49Z</time>
      </trkpt>
      <trkpt lat="46.72871" lon="6.32926">
        <ele>1245</ele>
        <time>2019-05-21T15:46:57Z</time>
      </trkpt>
      <trkpt lat="46.72872" lon="6.32913">
        <ele>1245</ele>
        <time>2019-05-21T15:47:04Z</time>
      </trkpt>
      <trkpt lat="46.72872" lon="6.32878">
        <ele>1244</ele>
        <time>2019-05-21T15:47:24Z</time>
      </trkpt>
      <trkpt lat="46.7287" lon="6.32871">
        <ele>1243</ele>
        <time>2019-05-21T15:47:30Z</time>
      </trkpt>
      <trkpt lat="46.72871" lon="6.32857">
        <ele>1243</ele>
        <time>2019-05-21T15:47:39Z</time>
      </trkpt>
      <trkpt lat="46.7287" lon="6.3285">
        <ele>1243</ele>
        <time>2019-05-21T15:47:43Z</time>
      </trkpt>
      <trkpt lat="46.72868" lon="6.32843">
        <ele>1242</ele>
        <time>2019-05-21T15:47:47Z</time>
      </trkpt>
      <trkpt lat="46.72867" lon="6.32835">
        <ele>1242</ele>
        <time>2019-05-21T15:47:52Z</time>
      </trkpt>
      <trkpt lat="46.72865" lon="6.32829">
        <ele>1241</ele>
        <time>2019-05-21T15:47:56Z</time>
      </trkpt>
      <trkpt lat="46.72863" lon="6.32822">
        <ele>1241</ele>
        <time>2019-05-21T15:48:00Z</time>
      </trkpt>
      <trkpt lat="46.72864" lon="6.32815">
        <ele>1240</ele>
        <time>2019-05-21T15:48:05Z</time>
      </trkpt>
      <trkpt lat="46.72864" lon="6.32808">
        <ele>1240</ele>
        <time>2019-05-21T15:48:09Z</time>
      </trkpt>
      <trkpt lat="46.72863" lon="6.32801">
        <ele>1240</ele>
        <time>2019-05-21T15:48:13Z</time>
      </trkpt>
      <trkpt lat="46.72862" lon="6.32793">
        <ele>1240</ele>
        <time>2019-05-21T15:48:18Z</time>
      </trkpt>
      <trkpt lat="46.72862" lon="6.32785">
        <ele>1239</ele>
        <time>2019-05-21T15:48:23Z</time>
      </trkpt>
      <trkpt lat="46.72861" lon="6.32778">
        <ele>1240</ele>
        <time>2019-05-21T15:48:28Z</time>
      </trkpt>
      <trkpt lat="46.72861" lon="6.32756">
        <ele>1239</ele>
        <time>2019-05-21T15:48:42Z</time>
      </trkpt>
      <trkpt lat="46.7286" lon="6.3275">
        <ele>1238</ele>
        <time>2019-05-21T15:48:46Z</time>
      </trkpt>
      <trkpt lat="46.7286" lon="6.32743">
        <ele>1239</ele>
        <time>2019-05-21T15:48:50Z</time>
      </trkpt>
      <trkpt lat="46.72858" lon="6.32727">
        <ele>1237</ele>
        <time>2019-05-21T15:49:00Z</time>
      </trkpt>
      <trkpt lat="46.72858" lon="6.32719">
        <ele>1237</ele>
        <time>2019-05-21T15:49:05Z</time>
      </trkpt>
      <trkpt lat="46.72859" lon="6.32711">
        <ele>1237</ele>
        <time>2019-05-21T15:49:10Z</time>
      </trkpt>
      <trkpt lat="46.72858" lon="6.32703">
        <ele>1236</ele>
        <time>2019-05-21T15:49:15Z</time>
      </trkpt>
      <trkpt lat="46.72857" lon="6.32694">
        <ele>1236</ele>
        <time>2019-05-21T15:49:22Z</time>
      </trkpt>
      <trkpt lat="46.72853" lon="6.32643">
        <ele>1231</ele>
        <time>2019-05-21T15:49:56Z</time>
      </trkpt>
      <trkpt lat="46.72849" lon="6.32617">
        <ele>1228</ele>
        <time>2019-05-21T15:50:12Z</time>
      </trkpt>
      <trkpt lat="46.72846" lon="6.32597">
        <ele>1228</ele>
        <time>2019-05-21T15:50:24Z</time>
      </trkpt>
      <trkpt lat="46.72844" lon="6.32584">
        <ele>1227</ele>
        <time>2019-05-21T15:50:32Z</time>
      </trkpt>
      <trkpt lat="46.72844" lon="6.32577">
        <ele>1227</ele>
        <time>2019-05-21T15:50:37Z</time>
      </trkpt>
      <trkpt lat="46.72842" lon="6.32569">
        <ele>1227</ele>
        <time>2019-05-21T15:50:42Z</time>
      </trkpt>
      <trkpt lat="46.72841" lon="6.32562">
        <ele>1227</ele>
        <time>2019-05-21T15:50:46Z</time>
      </trkpt>
      <trkpt lat="46.7284" lon="6.32555">
        <ele>1226</ele>
        <time>2019-05-21T15:50:51Z</time>
      </trkpt>
      <trkpt lat="46.72839" lon="6.32538">
        <ele>1227</ele>
        <time>2019-05-21T15:51:00Z</time>
      </trkpt>
      <trkpt lat="46.72838" lon="6.32531">
        <ele>1226</ele>
        <time>2019-05-21T15:51:04Z</time>
      </trkpt>
      <trkpt lat="46.72839" lon="6.32523">
        <ele>1225</ele>
        <time>2019-05-21T15:51:09Z</time>
      </trkpt>
      <trkpt lat="46.72839" lon="6.32516">
        <ele>1225</ele>
        <time>2019-05-21T15:51:14Z</time>
      </trkpt>
      <trkpt lat="46.72839" lon="6.32509">
        <ele>1225</ele>
        <time>2019-05-21T15:51:19Z</time>
      </trkpt>
      <trkpt lat="46.72839" lon="6.32497">
        <ele>1225</ele>
        <time>2019-05-21T15:51:28Z</time>
      </trkpt>
      <trkpt lat="46.72837" lon="6.3249">
        <ele>1226</ele>
        <time>2019-05-21T15:51:32Z</time>
      </trkpt>
      <trkpt lat="46.72838" lon="6.32483">
        <ele>1226</ele>
        <time>2019-05-21T15:51:36Z</time>
      </trkpt>
      <trkpt lat="46.72841" lon="6.32462">
        <ele>1227</ele>
        <time>2019-05-21T15:51:50Z</time>
      </trkpt>
      <trkpt lat="46.7284" lon="6.32456">
        <ele>1226</ele>
        <time>2019-05-21T15:51:55Z</time>
      </trkpt>
      <trkpt lat="46.7284" lon="6.32448">
        <ele>1227</ele>
        <time>2019-05-21T15:52:00Z</time>
      </trkpt>
      <trkpt lat="46.7284" lon="6.32441">
        <ele>1227</ele>
        <time>2019-05-21T15:52:05Z</time>
      </trkpt>
      <trkpt lat="46.72839" lon="6.32434">
        <ele>1227</ele>
        <time>2019-05-21T15:52:10Z</time>
      </trkpt>
      <trkpt lat="46.7284" lon="6.32427">
        <ele>1227</ele>
        <time>2019-05-21T15:52:15Z</time>
      </trkpt>
      <trkpt lat="46.72844" lon="6.32413">
        <ele>1226</ele>
        <time>2019-05-21T15:52:25Z</time>
      </trkpt>
      <trkpt lat="46.72847" lon="6.32399">
        <ele>1227</ele>
        <time>2019-05-21T15:52:35Z</time>
      </trkpt>
      <trkpt lat="46.72849" lon="6.32391">
        <ele>1227</ele>
        <time>2019-05-21T15:52:40Z</time>
      </trkpt>
      <trkpt lat="46.7286" lon="6.32359">
        <ele>1227</ele>
        <time>2019-05-21T15:52:59Z</time>
      </trkpt>
      <trkpt lat="46.72862" lon="6.32352">
        <ele>1227</ele>
        <time>2019-05-21T15:53:04Z</time>
      </trkpt>
      <trkpt lat="46.72864" lon="6.32333">
        <ele>1225</ele>
        <time>2019-05-21T15:53:18Z</time>
      </trkpt>
      <trkpt lat="46.72865" lon="6.32325">
        <ele>1224</ele>
        <time>2019-05-21T15:53:23Z</time>
      </trkpt>
      <trkpt lat="46.72867" lon="6.32319">
        <ele>1225</ele>
        <time>2019-05-21T15:53:27Z</time>
      </trkpt>
      <trkpt lat="46.7287" lon="6.32314">
        <ele>1224</ele>
        <time>2019-05-21T15:53:31Z</time>
      </trkpt>
      <trkpt lat="46.72871" lon="6.32304">
        <ele>1223</ele>
        <time>2019-05-21T15:53:38Z</time>
      </trkpt>
      <trkpt lat="46.72871" lon="6.32297">
        <ele>1222</ele>
        <time>2019-05-21T15:53:42Z</time>
      </trkpt>
      <trkpt lat="46.72871" lon="6.32291">
        <ele>1222</ele>
        <time>2019-05-21T15:53:46Z</time>
      </trkpt>
      <trkpt lat="46.72874" lon="6.32284">
        <ele>1223</ele>
        <time>2019-05-21T15:53:51Z</time>
      </trkpt>
      <trkpt lat="46.72875" lon="6.32268">
        <ele>1222</ele>
        <time>2019-05-21T15:54:01Z</time>
      </trkpt>
      <trkpt lat="46.72874" lon="6.3226">
        <ele>1221</ele>
        <time>2019-05-21T15:54:33Z</time>
      </trkpt>
      <trkpt lat="46.72877" lon="6.32249">
        <ele>1220</ele>
        <time>2019-05-21T15:54:51Z</time>
      </trkpt>
      <trkpt lat="46.72876" lon="6.32243">
        <ele>1219</ele>
        <time>2019-05-21T15:54:57Z</time>
      </trkpt>
      <trkpt lat="46.72877" lon="6.32235">
        <ele>1219</ele>
        <time>2019-05-21T15:55:19Z</time>
      </trkpt>
      <trkpt lat="46.72877" lon="6.32228">
        <ele>1220</ele>
        <time>2019-05-21T15:55:23Z</time>
      </trkpt>
      <trkpt lat="46.72876" lon="6.32221">
        <ele>1220</ele>
        <time>2019-05-21T15:55:27Z</time>
      </trkpt>
      <trkpt lat="46.72875" lon="6.32206">
        <ele>1220</ele>
        <time>2019-05-21T15:55:36Z</time>
      </trkpt>
      <trkpt lat="46.72873" lon="6.32194">
        <ele>1220</ele>
        <time>2019-05-21T15:55:45Z</time>
      </trkpt>
      <trkpt lat="46.72871" lon="6.32186">
        <ele>1220</ele>
        <time>2019-05-21T15:55:50Z</time>
      </trkpt>
      <trkpt lat="46.72871" lon="6.32179">
        <ele>1221</ele>
        <time>2019-05-21T15:55:54Z</time>
      </trkpt>
      <trkpt lat="46.72869" lon="6.32161">
        <ele>1222</ele>
        <time>2019-05-21T15:56:06Z</time>
      </trkpt>
      <trkpt lat="46.72866" lon="6.32154">
        <ele>1222</ele>
        <time>2019-05-21T15:56:11Z</time>
      </trkpt>
      <trkpt lat="46.72864" lon="6.32149">
        <ele>1222</ele>
        <time>2019-05-21T15:56:15Z</time>
      </trkpt>
      <trkpt lat="46.7286" lon="6.32144">
        <ele>1222</ele>
        <time>2019-05-21T15:56:20Z</time>
      </trkpt>
      <trkpt lat="46.72858" lon="6.32137">
        <ele>1221</ele>
        <time>2019-05-21T15:56:28Z</time>
      </trkpt>
      <trkpt lat="46.72855" lon="6.32128">
        <ele>1223</ele>
        <time>2019-05-21T15:56:40Z</time>
      </trkpt>
      <trkpt lat="46.7285" lon="6.32124">
        <ele>1222</ele>
        <time>2019-05-21T15:56:46Z</time>
      </trkpt>
      <trkpt lat="46.72843" lon="6.32117">
        <ele>1224</ele>
        <time>2019-05-21T15:56:55Z</time>
      </trkpt>
      <trkpt lat="46.7284" lon="6.3211">
        <ele>1223</ele>
        <time>2019-05-21T15:57:03Z</time>
      </trkpt>
      <trkpt lat="46.72847" lon="6.32105">
        <ele>1223</ele>
        <time>2019-05-21T15:57:14Z</time>
      </trkpt>
      <trkpt lat="46.72847" lon="6.32099">
        <ele>1221</ele>
        <time>2019-05-21T15:58:18Z</time>
      </trkpt>
      <trkpt lat="46.72856" lon="6.32101">
        <ele>1222</ele>
        <time>2019-05-21T15:58:34Z</time>
      </trkpt>
      <trkpt lat="46.72851" lon="6.32105">
        <ele>1220</ele>
        <time>2019-05-21T15:59:23Z</time>
      </trkpt>
    </trkseg>
  </trk>
</gpx>